Wetterdaten: Mittwoch, 05.02.2020
Datum Zeit Temp. Aussen Temp. o. S. Temp +5cm Feuchte Auss Luftdruck Regen Sonnenschein Regendauer Solar Windben Empfang
05.02.2020 00:00 1,3 C 0,0 C -0,6 C 97 % 1027,7 hPa 0,0 l/m 0 min 0 min 0 W/m 0,0 km/h (0 Bft) 95,74 %
05.02.2020 00:02 1,3 C 0,0 C -0,6 C 97 % 1027,8 hPa 0,0 l/m 0 min 0 min 0 W/m 0,0 km/h (0 Bft) 97,30 %
05.02.2020 00:04 1,2 C 0,0 C 0,0 C 97 % 1027,9 hPa 0,2 l/m 0 min 0 min 0 W/m 0,0 km/h (0 Bft) 93,62 %
05.02.2020 00:08 1,2 C 0,0 C 0,0 C 97 % 1027,9 hPa 0,0 l/m 0 min 0 min 0 W/m 0,0 km/h (0 Bft) 95,70 %
05.02.2020 00:10 1,2 C 0,0 C 0,0 C 97 % 1027,9 hPa 0,0 l/m 0 min 0 min 0 W/m 0,0 km/h (0 Bft) 93,48 %
05.02.2020 00:12 1,2 C 0,0 C 0,0 C 97 % 1027,9 hPa 0,0 l/m 0 min 0 min 0 W/m 0,0 km/h (0 Bft) 53,33 %
05.02.2020 00:14 1,2 C 0,0 C 0,0 C 97 % 1028,0 hPa 0,0 l/m 0 min 0 min 0 W/m 0,0 km/h (0 Bft) 97,87 %
05.02.2020 00:16 1,2 C 0,0 C 0,0 C 97 % 1028,1 hPa 0,0 l/m 0 min 0 min 0 W/m 0,0 km/h (0 Bft) 95,74 %
05.02.2020 00:18 1,2 C 0,0 C 0,0 C 97 % 1028,2 hPa 0,0 l/m 0 min 0 min 0 W/m 0,0 km/h (0 Bft) 93,62 %
05.02.2020 00:20 1,2 C 0,0 C 0,0 C 97 % 1028,3 hPa 0,0 l/m 0 min 0 min 0 W/m 3,2 km/h (1 Bft) 95,74 %
05.02.2020 00:22 1,2 C 0,0 C 0,0 C 97 % 1028,3 hPa 0,0 l/m 0 min 0 min 0 W/m 3,2 km/h (1 Bft) 95,65 %
05.02.2020 00:24 1,2 C 0,0 C 0,0 C 97 % 1028,3 hPa 0,0 l/m 0 min 0 min 0 W/m 0,0 km/h (0 Bft) 95,74 %
05.02.2020 00:26 1,2 C 0,0 C 0,0 C 98 % 1028,3 hPa 0,0 l/m 0 min 0 min 0 W/m 0,0 km/h (0 Bft) 95,74 %
05.02.2020 00:28 1,2 C 0,0 C 0,0 C 98 % 1028,3 hPa 0,0 l/m 0 min 0 min 0 W/m 0,0 km/h (0 Bft) 95,74 %
05.02.2020 00:30 1,2 C 0,0 C 0,0 C 98 % 1028,4 hPa 0,0 l/m 0 min 0 min 0 W/m 0,0 km/h (0 Bft) 95,74 %
05.02.2020 00:32 1,2 C 0,0 C 0,0 C 98 % 1028,4 hPa 0,0 l/m 0 min 0 min 0 W/m 0,0 km/h (0 Bft) 97,83 %
05.02.2020 00:34 1,2 C 0,0 C 0,0 C 98 % 1028,4 hPa 0,0 l/m 0 min 0 min 0 W/m 0,0 km/h (0 Bft) 97,87 %
05.02.2020 00:36 1,2 C 0,0 C 0,0 C 98 % 1028,4 hPa 0,0 l/m 0 min 0 min 0 W/m 0,0 km/h (0 Bft) 95,74 %
05.02.2020 00:38 1,2 C 0,0 C 0,0 C 98 % 1028,4 hPa 0,0 l/m 0 min 0 min 0 W/m 0,0 km/h (0 Bft) 97,87 %
05.02.2020 00:40 1,2 C 0,0 C 0,0 C 98 % 1028,4 hPa 0,0 l/m 0 min 0 min 0 W/m 0,0 km/h (0 Bft) 97,87 %
05.02.2020 00:42 1,2 C 0,0 C 0,0 C 98 % 1028,5 hPa 0,0 l/m 0 min 0 min 0 W/m 0,0 km/h (0 Bft) 97,87 %
05.02.2020 00:44 1,2 C 0,0 C 0,0 C 98 % 1028,5 hPa 0,0 l/m 0 min 0 min 0 W/m 0,0 km/h (0 Bft) 95,74 %
05.02.2020 00:46 1,2 C 0,0 C 0,0 C 98 % 1028,6 hPa 0,0 l/m 0 min 0 min 0 W/m 3,2 km/h (1 Bft) 97,83 %
05.02.2020 00:48 1,2 C 0,0 C 0,0 C 98 % 1028,6 hPa 0,0 l/m 0 min 0 min 0 W/m 0,0 km/h (0 Bft) 97,87 %
05.02.2020 00:50 1,2 C 0,0 C 0,0 C 98 % 1028,7 hPa 0,0 l/m 0 min 0 min 0 W/m 0,0 km/h (0 Bft) 97,87 %
05.02.2020 00:52 1,2 C 0,0 C 0,0 C 98 % 1028,7 hPa 0,0 l/m 0 min 0 min 0 W/m 0,0 km/h (0 Bft) 97,87 %
05.02.2020 00:54 1,2 C 0,0 C 0,0 C 98 % 1028,8 hPa 0,0 l/m 0 min 0 min 0 W/m 0,0 km/h (0 Bft) 97,87 %
05.02.2020 00:56 1,2 C 0,0 C 0,0 C 98 % 1028,8 hPa 0,0 l/m 0 min 0 min 0 W/m 0,0 km/h (0 Bft) 97,83 %
05.02.2020 00:58 1,2 C 0,0 C 0,0 C 98 % 1028,9 hPa 0,0 l/m 0 min 0 min 0 W/m 0,0 km/h (0 Bft) 57,45 %
05.02.2020 01:00 1,2 C 0,6 C 0,0 C 98 % 1028,9 hPa 0,0 l/m 0 min 0 min 0 W/m 6,4 km/h (2 Bft) 93,62 %
05.02.2020 01:02 1,2 C 0,6 C 0,0 C 98 % 1029,0 hPa 0,0 l/m 0 min 0 min 0 W/m 0,0 km/h (0 Bft) 97,87 %
05.02.2020 01:04 1,2 C 0,0 C 0,0 C 98 % 1029,0 hPa 0,0 l/m 0 min 0 min 0 W/m 3,2 km/h (1 Bft) 97,87 %
05.02.2020 01:06 1,2 C 0,0 C 0,0 C 98 % 1029,0 hPa 0,0 l/m 0 min 0 min 0 W/m 0,0 km/h (0 Bft) 97,87 %
05.02.2020 01:08 1,2 C 0,0 C 0,0 C 98 % 1029,1 hPa 0,0 l/m 0 min 0 min 0 W/m 0,0 km/h (0 Bft) 97,83 %
05.02.2020 01:10 1,2 C 0,0 C 0,0 C 98 % 1029,1 hPa 0,0 l/m 0 min 0 min 0 W/m 3,2 km/h (1 Bft) 97,87 %
05.02.2020 01:12 1,2 C 0,0 C 0,0 C 98 % 1029,1 hPa 0,0 l/m 0 min 0 min 0 W/m 0,0 km/h (0 Bft) 97,87 %
05.02.2020 01:14 1,2 C 0,0 C 0,0 C 98 % 1029,1 hPa 0,0 l/m 0 min 0 min 0 W/m 0,0 km/h (0 Bft) 97,87 %
05.02.2020 01:16 1,2 C 0,0 C 0,0 C 98 % 1029,2 hPa 0,0 l/m 0 min 0 min 0 W/m 0,0 km/h (0 Bft) 100,00 %
05.02.2020 01:18 1,2 C 0,0 C 0,0 C 98 % 1029,2 hPa 0,0 l/m 0 min 0 min 0 W/m 0,0 km/h (0 Bft) 100,00 %
05.02.2020 01:20 1,2 C 0,0 C 0,0 C 98 % 1029,2 hPa 0,0 l/m 0 min 0 min 0 W/m 0,0 km/h (0 Bft) 100,00 %
05.02.2020 01:22 1,2 C 0,6 C 0,0 C 98 % 1029,3 hPa 0,0 l/m 0 min 0 min 0 W/m 3,2 km/h (1 Bft) 100,00 %
05.02.2020 01:24 1,2 C 0,6 C 0,0 C 98 % 1029,3 hPa 0,0 l/m 0 min 0 min 0 W/m 0,0 km/h (0 Bft) 100,00 %
05.02.2020 01:26 1,2 C 0,6 C 0,6 C 98 % 1029,3 hPa 0,0 l/m 0 min 0 min 0 W/m 0,0 km/h (0 Bft) 100,00 %
05.02.2020 01:28 1,2 C 0,6 C 0,6 C 98 % 1029,3 hPa 0,0 l/m 0 min 0 min 0 W/m 3,2 km/h (1 Bft) 100,00 %
05.02.2020 01:30 1,2 C 0,6 C 0,6 C 98 % 1029,4 hPa 0,0 l/m 0 min 0 min 0 W/m 3,2 km/h (1 Bft) 100,00 %
05.02.2020 01:32 1,3 C 1,1 C 0,6 C 98 % 1029,4 hPa 0,0 l/m 0 min 0 min 0 W/m 3,2 km/h (1 Bft) 95,65 %
05.02.2020 01:34 1,3 C 1,1 C 0,6 C 98 % 1029,5 hPa 0,0 l/m 0 min 0 min 0 W/m 0,0 km/h (0 Bft) 100,00 %
05.02.2020 01:36 1,3 C 1,1 C 0,6 C 98 % 1029,5 hPa 0,0 l/m 0 min 0 min 0 W/m 0,0 km/h (0 Bft) 100,00 %
05.02.2020 01:38 1,3 C 1,1 C 0,6 C 98 % 1029,5 hPa 0,0 l/m 0 min 0 min 0 W/m 0,0 km/h (0 Bft) 100,00 %
05.02.2020 01:40 1,3 C 1,1 C 0,6 C 98 % 1029,6 hPa 0,0 l/m 0 min 0 min 0 W/m 0,0 km/h (0 Bft) 100,00 %
05.02.2020 01:42 1,4 C 1,1 C 0,6 C 98 % 1029,6 hPa 0,0 l/m 0 min 0 min 0 W/m 3,2 km/h (1 Bft) 100,00 %
05.02.2020 01:44 1,4 C 1,1 C 0,6 C 98 % 1029,6 hPa 0,0 l/m 0 min 0 min 0 W/m 6,4 km/h (2 Bft) 100,00 %
05.02.2020 01:46 1,4 C 1,1 C 1,1 C 98 % 1029,6 hPa 0,0 l/m 0 min 0 min 0 W/m 6,4 km/h (2 Bft) 100,00 %
05.02.2020 01:48 1,5 C 1,1 C 1,1 C 98 % 1029,7 hPa 0,0 l/m 0 min 0 min 0 W/m 0,0 km/h (0 Bft) 100,00 %
05.02.2020 01:50 1,6 C 1,1 C 1,1 C 98 % 1029,7 hPa 0,0 l/m 0 min 0 min 0 W/m 0,0 km/h (0 Bft) 100,00 %
05.02.2020 01:52 1,6 C 1,1 C 1,1 C 98 % 1029,7 hPa 0,0 l/m 0 min 0 min 0 W/m 0,0 km/h (0 Bft) 100,00 %
05.02.2020 01:54 1,7 C 1,1 C 1,1 C 98 % 1029,7 hPa 0,0 l/m 0 min 0 min 0 W/m 3,2 km/h (1 Bft) 100,00 %
05.02.2020 01:56 1,7 C 1,1 C 1,1 C 98 % 1029,8 hPa 0,0 l/m 0 min 0 min 0 W/m 6,4 km/h (2 Bft) 100,00 %
05.02.2020 01:58 1,7 C 1,1 C 1,1 C 98 % 1029,9 hPa 0,0 l/m 0 min 0 min 0 W/m 6,4 km/h (2 Bft) 100,00 %
05.02.2020 02:00 1,8 C 1,1 C 1,1 C 98 % 1029,9 hPa 0,0 l/m 0 min 0 min 0 W/m 3,2 km/h (1 Bft) 95,74 %
05.02.2020 02:02 1,8 C 1,7 C 1,1 C 98 % 1030,0 hPa 0,0 l/m 0 min 0 min 0 W/m 9,7 km/h (2 Bft) 100,00 %
05.02.2020 02:04 1,8 C 1,7 C 1,1 C 98 % 1030,0 hPa 0,0 l/m 0 min 0 min 0 W/m 9,7 km/h (2 Bft) 97,87 %
05.02.2020 02:06 1,8 C 1,7 C 1,1 C 98 % 1030,0 hPa 0,0 l/m 0 min 0 min 0 W/m 0,0 km/h (0 Bft) 95,65 %
05.02.2020 02:08 1,9 C 1,7 C 1,1 C 98 % 1030,0 hPa 0,0 l/m 0 min 0 min 0 W/m 6,4 km/h (2 Bft) 95,74 %
05.02.2020 02:10 1,9 C 1,7 C 1,1 C 98 % 1030,0 hPa 0,0 l/m 0 min 0 min 0 W/m 3,2 km/h (1 Bft) 97,87 %
05.02.2020 02:12 1,9 C 1,7 C 1,1 C 98 % 1030,0 hPa 0,0 l/m 0 min 0 min 0 W/m 0,0 km/h (0 Bft) 95,74 %
05.02.2020 02:14 2,0 C 1,7 C 1,1 C 98 % 1030,1 hPa 0,0 l/m 0 min 0 min 0 W/m 6,4 km/h (2 Bft) 95,74 %
05.02.2020 02:16 2,0 C 1,7 C 1,1 C 98 % 1030,1 hPa 0,0 l/m 0 min 0 min 0 W/m 3,2 km/h (1 Bft) 95,74 %
05.02.2020 02:18 2,1 C 1,7 C 1,1 C 99 % 1030,2 hPa 0,0 l/m 0 min 0 min 0 W/m 0,0 km/h (0 Bft) 95,65 %
05.02.2020 02:20 2,1 C 1,7 C 1,1 C 99 % 1030,2 hPa 0,0 l/m 0 min 0 min 0 W/m 0,0 km/h (0 Bft) 95,74 %
05.02.2020 02:22 2,1 C 1,7 C 1,1 C 99 % 1030,2 hPa 0,0 l/m 0 min 0 min 0 W/m 0,0 km/h (0 Bft) 95,74 %
05.02.2020 02:24 2,1 C 1,7 C 1,1 C 99 % 1030,2 hPa 0,0 l/m 0 min 0 min 0 W/m 0,0 km/h (0 Bft) 93,62 %
05.02.2020 02:26 2,2 C 1,7 C 1,1 C 99 % 1030,3 hPa 0,0 l/m 0 min 0 min 0 W/m 0,0 km/h (0 Bft) 93,62 %
05.02.2020 02:28 2,2 C 1,7 C 1,7 C 99 % 1030,3 hPa 0,0 l/m 0 min 0 min 0 W/m 0,0 km/h (0 Bft) 95,74 %
05.02.2020 02:30 2,2 C 1,7 C 1,7 C 99 % 1030,3 hPa 0,0 l/m 0 min 0 min 0 W/m 0,0 km/h (0 Bft) 95,65 %
05.02.2020 02:32 2,2 C 1,7 C 1,7 C 98 % 1030,4 hPa 0,0 l/m 0 min 0 min 0 W/m 0,0 km/h (0 Bft) 95,74 %
05.02.2020 02:34 2,3 C 1,7 C 1,7 C 99 % 1030,4 hPa 0,0 l/m 0 min 0 min 0 W/m 0,0 km/h (0 Bft) 93,62 %
05.02.2020 02:36 2,3 C 1,7 C 1,7 C 99 % 1030,4 hPa 0,0 l/m 0 min 0 min 0 W/m 0,0 km/h (0 Bft) 95,74 %
05.02.2020 02:38 2,3 C 1,7 C 1,7 C 99 % 1030,4 hPa 0,0 l/m 0 min 0 min 0 W/m 0,0 km/h (0 Bft) 95,74 %
05.02.2020 02:40 2,3 C 2,2 C 1,7 C 99 % 1030,4 hPa 0,0 l/m 0 min 0 min 0 W/m 3,2 km/h (1 Bft) 95,74 %
05.02.2020 02:42 2,3 C 2,2 C 1,7 C 99 % 1030,4 hPa 0,0 l/m 0 min 0 min 0 W/m 0,0 km/h (0 Bft) 95,65 %
05.02.2020 02:44 2,3 C 2,2 C 1,7 C 99 % 1030,4 hPa 0,0 l/m 0 min 0 min 0 W/m 0,0 km/h (0 Bft) 97,87 %
05.02.2020 02:46 2,4 C 2,2 C 1,7 C 99 % 1030,5 hPa 0,0 l/m 0 min 0 min 0 W/m 0,0 km/h (0 Bft) 97,96 %
05.02.2020 02:48 2,4 C 2,2 C 1,7 C 99 % 1030,5 hPa 0,0 l/m 0 min 0 min 0 W/m 3,2 km/h (1 Bft) 97,87 %
05.02.2020 02:50 2,4 C 2,2 C 1,7 C 99 % 1030,6 hPa 0,0 l/m 0 min 0 min 0 W/m 0,0 km/h (0 Bft) 97,83 %
05.02.2020 02:52 2,4 C 2,2 C 1,7 C 99 % 1030,6 hPa 0,0 l/m 0 min 0 min 0 W/m 0,0 km/h (0 Bft) 97,87 %
05.02.2020 02:54 2,5 C 2,2 C 1,7 C 99 % 1030,6 hPa 0,0 l/m 0 min 0 min 0 W/m 0,0 km/h (0 Bft) 97,87 %
05.02.2020 02:56 2,6 C 2,2 C 1,7 C 99 % 1030,7 hPa 0,0 l/m 0 min 0 min 0 W/m 3,2 km/h (1 Bft) 97,87 %
05.02.2020 02:58 2,6 C 2,2 C 1,7 C 99 % 1030,7 hPa 0,0 l/m 0 min 0 min 0 W/m 0,0 km/h (0 Bft) 100,00 %
05.02.2020 03:00 2,6 C 2,2 C 1,7 C 99 % 1030,8 hPa 0,0 l/m 0 min 0 min 0 W/m 3,2 km/h (1 Bft) 100,00 %
05.02.2020 03:02 2,6 C 2,2 C 1,7 C 99 % 1030,7 hPa 0,0 l/m 0 min 0 min 0 W/m 0,0 km/h (0 Bft) 100,00 %
05.02.2020 03:04 2,7 C 2,2 C 1,7 C 99 % 1030,8 hPa 0,0 l/m 0 min 0 min 0 W/m 0,0 km/h (0 Bft) 100,00 %
05.02.2020 03:06 2,7 C 2,2 C 1,7 C 99 % 1030,8 hPa 0,0 l/m 0 min 0 min 0 W/m 6,4 km/h (2 Bft) 100,00 %
05.02.2020 03:08 2,7 C 2,2 C 1,7 C 99 % 1030,8 hPa 0,0 l/m 0 min 0 min 0 W/m 0,0 km/h (0 Bft) 100,00 %
05.02.2020 03:10 2,7 C 2,2 C 1,7 C 99 % 1030,9 hPa 0,0 l/m 0 min 0 min 0 W/m 0,0 km/h (0 Bft) 100,00 %
05.02.2020 03:12 2,7 C 2,2 C 1,7 C 99 % 1030,9 hPa 0,0 l/m 0 min 0 min 0 W/m 0,0 km/h (0 Bft) 100,00 %
05.02.2020 03:14 2,8 C 2,2 C 1,7 C 99 % 1031,0 hPa 0,0 l/m 0 min 0 min 0 W/m 0,0 km/h (0 Bft) 100,00 %
05.02.2020 03:16 2,8 C 2,2 C 1,7 C 99 % 1030,9 hPa 0,0 l/m 0 min 0 min 0 W/m 0,0 km/h (0 Bft) 100,00 %
05.02.2020 03:18 2,8 C 2,2 C 1,7 C 99 % 1030,9 hPa 0,0 l/m 0 min 0 min 0 W/m 0,0 km/h (0 Bft) 100,00 %
05.02.2020 03:20 2,8 C 2,2 C 1,7 C 99 % 1030,9 hPa 0,0 l/m 0 min 0 min 0 W/m 3,2 km/h (1 Bft) 100,00 %
05.02.2020 03:22 2,8 C 2,2 C 1,7 C 99 % 1031,0 hPa 0,0 l/m 0 min 0 min 0 W/m 3,2 km/h (1 Bft) 100,00 %
05.02.2020 03:24 2,8 C 2,2 C 1,7 C 99 % 1031,0 hPa 0,0 l/m 0 min 0 min 0 W/m 0,0 km/h (0 Bft) 100,00 %
05.02.2020 03:26 2,8 C 2,2 C 1,7 C 99 % 1031,0 hPa 0,0 l/m 0 min 0 min 0 W/m 3,2 km/h (1 Bft) 100,00 %
05.02.2020 03:28 2,9 C 2,2 C 1,7 C 99 % 1031,0 hPa 0,0 l/m 0 min 0 min 0 W/m 3,2 km/h (1 Bft) 100,00 %
05.02.2020 03:30 2,9 C 2,2 C 2,2 C 99 % 1031,0 hPa 0,0 l/m 0 min 0 min 0 W/m 3,2 km/h (1 Bft) 100,00 %
05.02.2020 03:32 2,9 C 2,2 C 2,2 C 99 % 1031,1 hPa 0,0 l/m 0 min 0 min 0 W/m 0,0 km/h (0 Bft) 100,00 %
05.02.2020 03:34 2,9 C 2,2 C 2,2 C 99 % 1031,0 hPa 0,0 l/m 0 min 0 min 0 W/m 0,0 km/h (0 Bft) 100,00 %
05.02.2020 03:36 2,9 C 2,2 C 1,7 C 99 % 1031,1 hPa 0,0 l/m 0 min 0 min 0 W/m 0,0 km/h (0 Bft) 97,83 %
05.02.2020 03:38 3,0 C 2,2 C 1,7 C 99 % 1031,2 hPa 0,0 l/m 0 min 0 min 0 W/m 0,0 km/h (0 Bft) 97,87 %
05.02.2020 03:40 3,0 C 2,2 C 1,7 C 99 % 1031,2 hPa 0,0 l/m 0 min 0 min 0 W/m 0,0 km/h (0 Bft) 95,74 %
05.02.2020 03:42 3,0 C 2,2 C 1,7 C 99 % 1031,2 hPa 0,0 l/m 0 min 0 min 0 W/m 0,0 km/h (0 Bft) 97,87 %
05.02.2020 03:44 3,0 C 2,2 C 1,7 C 99 % 1031,3 hPa 0,0 l/m 0 min 0 min 0 W/m 0,0 km/h (0 Bft) 97,87 %
05.02.2020 03:46 3,0 C 2,2 C 1,7 C 99 % 1031,3 hPa 0,0 l/m 0 min 0 min 0 W/m 0,0 km/h (0 Bft) 95,74 %
05.02.2020 03:48 3,0 C 2,2 C 1,7 C 99 % 1031,3 hPa 0,0 l/m 0 min 0 min 0 W/m 3,2 km/h (1 Bft) 97,83 %
05.02.2020 03:50 3,1 C 2,2 C 1,7 C 99 % 1031,3 hPa 0,0 l/m 0 min 0 min 0 W/m 0,0 km/h (0 Bft) 97,87 %
05.02.2020 03:52 3,1 C 2,2 C 1,7 C 99 % 1031,4 hPa 0,0 l/m 0 min 0 min 0 W/m 0,0 km/h (0 Bft) 100,00 %
05.02.2020 03:54 3,1 C 2,2 C 1,7 C 99 % 1031,4 hPa 0,0 l/m 0 min 0 min 0 W/m 0,0 km/h (0 Bft) 97,87 %
05.02.2020 03:56 3,1 C 2,2 C 1,7 C 99 % 1031,4 hPa 0,0 l/m 0 min 0 min 0 W/m 0,0 km/h (0 Bft) 95,74 %
05.02.2020 03:58 3,1 C 2,2 C 1,7 C 99 % 1031,5 hPa 0,0 l/m 0 min 0 min 0 W/m 0,0 km/h (0 Bft) 97,87 %
05.02.2020 04:00 3,1 C 2,2 C 1,7 C 99 % 1031,5 hPa 0,0 l/m 0 min 0 min 0 W/m 0,0 km/h (0 Bft) 97,83 %
05.02.2020 04:02 3,1 C 2,2 C 1,7 C 99 % 1031,5 hPa 0,0 l/m 0 min 0 min 0 W/m 0,0 km/h (0 Bft) 100,00 %
05.02.2020 04:04 3,1 C 2,2 C 1,7 C 99 % 1031,6 hPa 0,0 l/m 0 min 0 min 0 W/m 0,0 km/h (0 Bft) 93,62 %
05.02.2020 04:06 3,1 C 2,2 C 1,7 C 99 % 1031,6 hPa 0,0 l/m 0 min 0 min 0 W/m 0,0 km/h (0 Bft) 95,74 %
05.02.2020 04:08 3,1 C 2,2 C 1,7 C 99 % 1031,6 hPa 0,0 l/m 0 min 0 min 0 W/m 0,0 km/h (0 Bft) 95,74 %
05.02.2020 04:10 3,1 C 2,2 C 1,7 C 99 % 1031,7 hPa 0,0 l/m 0 min 0 min 0 W/m 0,0 km/h (0 Bft) 97,87 %
05.02.2020 04:12 3,1 C 2,2 C 1,7 C 99 % 1031,8 hPa 0,0 l/m 0 min 0 min 0 W/m 3,2 km/h (1 Bft) 100,00 %
05.02.2020 04:14 3,1 C 2,2 C 1,7 C 99 % 1031,7 hPa 0,0 l/m 0 min 0 min 0 W/m 3,2 km/h (1 Bft) 97,87 %
05.02.2020 04:16 3,1 C 2,2 C 2,2 C 99 % 1031,8 hPa 0,0 l/m 0 min 0 min 0 W/m 3,2 km/h (1 Bft) 97,87 %
05.02.2020 04:18 3,1 C 2,2 C 2,2 C 99 % 1031,8 hPa 0,0 l/m 0 min 0 min 0 W/m 0,0 km/h (0 Bft) 97,87 %
05.02.2020 04:20 3,1 C 2,2 C 1,7 C 99 % 1031,7 hPa 0,0 l/m 0 min 0 min 0 W/m 0,0 km/h (0 Bft) 95,74 %
05.02.2020 04:22 3,1 C 2,2 C 1,7 C 99 % 1031,8 hPa 0,0 l/m 0 min 0 min 0 W/m 0,0 km/h (0 Bft) 97,83 %
05.02.2020 04:24 3,1 C 2,2 C 1,7 C 99 % 1031,8 hPa 0,0 l/m 0 min 0 min 0 W/m 0,0 km/h (0 Bft) 97,87 %
05.02.2020 04:26 3,1 C 2,2 C 1,7 C 99 % 1031,8 hPa 0,0 l/m 0 min 0 min 0 W/m 0,0 km/h (0 Bft) 95,74 %
05.02.2020 04:28 3,1 C 2,2 C 1,7 C 99 % 1031,8 hPa 0,0 l/m 0 min 0 min 0 W/m 3,2 km/h (1 Bft) 95,74 %
05.02.2020 04:30 3,1 C 2,2 C 1,7 C 99 % 1031,9 hPa 0,0 l/m 0 min 0 min 0 W/m 0,0 km/h (0 Bft) 97,87 %
05.02.2020 04:32 3,1 C 2,2 C 1,7 C 99 % 1031,9 hPa 0,0 l/m 0 min 0 min 0 W/m 0,0 km/h (0 Bft) 97,87 %
05.02.2020 04:34 3,1 C 2,2 C 1,7 C 99 % 1032,0 hPa 0,0 l/m 0 min 0 min 0 W/m 0,0 km/h (0 Bft) 97,83 %
05.02.2020 04:36 3,1 C 2,2 C 1,7 C 99 % 1032,0 hPa 0,0 l/m 0 min 0 min 0 W/m 0,0 km/h (0 Bft) 97,87 %
05.02.2020 04:38 3,1 C 2,2 C 1,7 C 99 % 1032,0 hPa 0,0 l/m 0 min 0 min 0 W/m 0,0 km/h (0 Bft) 97,87 %
05.02.2020 04:40 3,1 C 2,2 C 1,7 C 99 % 1032,1 hPa 0,0 l/m 0 min 0 min 0 W/m 0,0 km/h (0 Bft) 97,87 %
05.02.2020 04:42 3,1 C 2,2 C 1,7 C 99 % 1032,1 hPa 0,0 l/m 0 min 0 min 0 W/m 0,0 km/h (0 Bft) 95,74 %
05.02.2020 04:44 3,1 C 2,2 C 1,7 C 99 % 1032,1 hPa 0,0 l/m 0 min 0 min 0 W/m 0,0 km/h (0 Bft) 97,87 %
05.02.2020 04:46 3,1 C 2,2 C 1,7 C 99 % 1032,2 hPa 0,0 l/m 0 min 0 min 0 W/m 0,0 km/h (0 Bft) 95,65 %
05.02.2020 04:48 3,1 C 2,2 C 1,7 C 99 % 1032,1 hPa 0,0 l/m 0 min 0 min 0 W/m 0,0 km/h (0 Bft) 95,74 %
05.02.2020 04:50 3,1 C 2,2 C 1,7 C 99 % 1032,2 hPa 0,0 l/m 0 min 0 min 0 W/m 3,2 km/h (1 Bft) 97,87 %
05.02.2020 04:52 3,1 C 2,2 C 1,7 C 99 % 1032,2 hPa 0,0 l/m 0 min 0 min 0 W/m 0,0 km/h (0 Bft) 97,87 %
05.02.2020 04:54 3,0 C 2,2 C 1,7 C 99 % 1032,2 hPa 0,0 l/m 0 min 0 min 0 W/m 3,2 km/h (1 Bft) 93,62 %
05.02.2020 04:56 3,0 C 2,2 C 1,7 C 99 % 1032,3 hPa 0,0 l/m 0 min 0 min 0 W/m 0,0 km/h (0 Bft) 97,87 %
05.02.2020 04:58 3,0 C 2,2 C 1,7 C 99 % 1032,3 hPa 0,0 l/m 0 min 0 min 0 W/m 3,2 km/h (1 Bft) 97,83 %
05.02.2020 05:00 3,0 C 2,2 C 1,7 C 99 % 1032,3 hPa 0,0 l/m 0 min 0 min 0 W/m 0,0 km/h (0 Bft) 93,62 %
05.02.2020 05:02 2,9 C 1,7 C 1,7 C 99 % 1032,3 hPa 0,0 l/m 0 min 0 min 0 W/m 0,0 km/h (0 Bft) 95,74 %
05.02.2020 05:04 2,9 C 1,7 C 1,7 C 99 % 1032,3 hPa 0,0 l/m 0 min 0 min 0 W/m 0,0 km/h (0 Bft) 93,62 %
05.02.2020 05:06 2,9 C 1,7 C 1,1 C 99 % 1032,4 hPa 0,0 l/m 0 min 0 min 0 W/m 0,0 km/h (0 Bft) 95,74 %
05.02.2020 05:08 2,9 C 1,7 C 1,1 C 99 % 1032,4 hPa 0,0 l/m 0 min 0 min 0 W/m 0,0 km/h (0 Bft) 97,87 %
05.02.2020 05:10 2,9 C 1,7 C 1,1 C 99 % 1032,4 hPa 0,0 l/m 0 min 0 min 0 W/m 0,0 km/h (0 Bft) 97,83 %
05.02.2020 05:12 2,9 C 1,7 C 1,1 C 99 % 1032,5 hPa 0,0 l/m 0 min 0 min 0 W/m 0,0 km/h (0 Bft) 97,87 %
05.02.2020 05:14 2,8 C 1,7 C 1,1 C 99 % 1032,6 hPa 0,0 l/m 0 min 0 min 0 W/m 0,0 km/h (0 Bft) 95,74 %
05.02.2020 05:16 2,8 C 1,7 C 1,1 C 99 % 1032,6 hPa 0,0 l/m 0 min 0 min 0 W/m 0,0 km/h (0 Bft) 95,74 %
05.02.2020 05:18 2,8 C 1,7 C 1,1 C 99 % 1032,6 hPa 0,0 l/m 0 min 0 min 0 W/m 0,0 km/h (0 Bft) 95,74 %
05.02.2020 05:20 2,8 C 1,7 C 1,1 C 99 % 1032,6 hPa 0,0 l/m 0 min 0 min 0 W/m 0,0 km/h (0 Bft) 97,83 %
05.02.2020 05:22 2,7 C 1,7 C 1,1 C 99 % 1032,7 hPa 0,0 l/m 0 min 0 min 0 W/m 0,0 km/h (0 Bft) 95,74 %
05.02.2020 05:24 2,7 C 1,7 C 1,1 C 99 % 1032,6 hPa 0,0 l/m 0 min 0 min 0 W/m 0,0 km/h (0 Bft) 97,87 %
05.02.2020 05:26 2,7 C 1,1 C 1,1 C 99 % 1032,7 hPa 0,0 l/m 0 min 0 min 0 W/m 0,0 km/h (0 Bft) 97,87 %
05.02.2020 05:28 2,7 C 1,1 C 0,6 C 99 % 1032,6 hPa 0,0 l/m 0 min 0 min 0 W/m 0,0 km/h (0 Bft) 97,87 %
05.02.2020 05:30 2,6 C 1,1 C 0,6 C 99 % 1032,7 hPa 0,0 l/m 0 min 0 min 0 W/m 0,0 km/h (0 Bft) 97,87 %
05.02.2020 05:32 2,6 C 1,1 C 0,6 C 99 % 1032,7 hPa 0,0 l/m 0 min 0 min 0 W/m 0,0 km/h (0 Bft) 93,48 %
05.02.2020 05:34 2,6 C 1,1 C 0,6 C 99 % 1032,7 hPa 0,0 l/m 0 min 0 min 0 W/m 0,0 km/h (0 Bft) 93,62 %
05.02.2020 05:36 2,6 C 1,1 C 0,6 C 99 % 1032,7 hPa 0,0 l/m 0 min 0 min 0 W/m 0,0 km/h (0 Bft) 97,87 %
05.02.2020 05:38 2,6 C 1,1 C 0,6 C 99 % 1032,8 hPa 0,0 l/m 0 min 0 min 0 W/m 0,0 km/h (0 Bft) 97,87 %
05.02.2020 05:40 2,6 C 1,1 C 0,6 C 99 % 1032,8 hPa 0,0 l/m 0 min 0 min 0 W/m 0,0 km/h (0 Bft) 97,87 %
05.02.2020 05:42 2,5 C 1,1 C 0,0 C 99 % 1032,9 hPa 0,0 l/m 0 min 0 min 0 W/m 0,0 km/h (0 Bft) 100,00 %
05.02.2020 05:44 2,5 C 1,1 C 0,0 C 99 % 1032,9 hPa 0,0 l/m 0 min 0 min 0 W/m 0,0 km/h (0 Bft) 100,00 %
05.02.2020 05:46 2,4 C 0,6 C 0,0 C 99 % 1032,9 hPa 0,0 l/m 0 min 0 min 0 W/m 0,0 km/h (0 Bft) 100,00 %
05.02.2020 05:48 2,4 C 0,6 C 0,0 C 99 % 1032,9 hPa 0,0 l/m 0 min 0 min 0 W/m 0,0 km/h (0 Bft) 100,00 %
05.02.2020 05:50 2,4 C 1,1 C 0,0 C 99 % 1033,0 hPa 0,0 l/m 0 min 0 min 0 W/m 0,0 km/h (0 Bft) 100,00 %
05.02.2020 05:52 2,3 C 0,6 C 0,0 C 99 % 1033,1 hPa 0,0 l/m 0 min 0 min 0 W/m 0,0 km/h (0 Bft) 100,00 %
05.02.2020 05:54 2,3 C 0,6 C 0,0 C 99 % 1033,0 hPa 0,0 l/m 0 min 0 min 0 W/m 0,0 km/h (0 Bft) 100,00 %
05.02.2020 05:56 2,3 C 0,6 C 0,0 C 99 % 1033,1 hPa 0,0 l/m 0 min 0 min 0 W/m 0,0 km/h (0 Bft) 100,00 %
05.02.2020 05:58 2,2 C 0,6 C 0,0 C 99 % 1033,1 hPa 0,0 l/m 0 min 0 min 0 W/m 0,0 km/h (0 Bft) 100,00 %
05.02.2020 06:00 2,2 C 0,6 C -0,6 C 99 % 1033,2 hPa 0,0 l/m 0 min 0 min 0 W/m 0,0 km/h (0 Bft) 100,00 %
05.02.2020 06:02 2,2 C 0,6 C 0,0 C 99 % 1033,2 hPa 0,0 l/m 0 min 0 min 0 W/m 0,0 km/h (0 Bft) 100,00 %
05.02.2020 06:04 2,2 C 0,6 C -0,6 C 99 % 1033,2 hPa 0,0 l/m 0 min 0 min 0 W/m 0,0 km/h (0 Bft) 100,00 %
05.02.2020 06:06 2,1 C 0,6 C -0,6 C 99 % 1033,2 hPa 0,0 l/m 0 min 0 min 0 W/m 0,0 km/h (0 Bft) 100,00 %
05.02.2020 06:08 2,1 C 0,6 C -0,6 C 99 % 1033,2 hPa 0,0 l/m 0 min 0 min 0 W/m 0,0 km/h (0 Bft) 100,00 %
05.02.2020 06:10 2,1 C 0,6 C -0,6 C 99 % 1033,2 hPa 0,0 l/m 0 min 0 min 0 W/m 0,0 km/h (0 Bft) 100,00 %
05.02.2020 06:12 2,1 C 0,6 C -0,6 C 99 % 1033,3 hPa 0,0 l/m 0 min 0 min 0 W/m 0,0 km/h (0 Bft) 100,00 %
05.02.2020 06:14 2,1 C 0,6 C -0,6 C 99 % 1033,3 hPa 0,0 l/m 0 min 0 min 0 W/m 0,0 km/h (0 Bft) 100,00 %
05.02.2020 06:16 2,0 C 0,6 C -0,6 C 99 % 1033,3 hPa 0,0 l/m 0 min 0 min 0 W/m 0,0 km/h (0 Bft) 97,87 %
05.02.2020 06:18 1,9 C 0,6 C -0,6 C 99 % 1033,3 hPa 0,0 l/m 0 min 0 min 0 W/m 0,0 km/h (0 Bft) 100,00 %
05.02.2020 06:20 1,9 C 0,6 C -0,6 C 99 % 1033,3 hPa 0,0 l/m 0 min 0 min 0 W/m 0,0 km/h (0 Bft) 100,00 %
05.02.2020 06:22 1,9 C 0,6 C -0,6 C 99 % 1033,4 hPa 0,0 l/m 0 min 0 min 0 W/m 0,0 km/h (0 Bft) 100,00 %
05.02.2020 06:24 1,9 C 0,6 C -0,6 C 99 % 1033,4 hPa 0,0 l/m 0 min 0 min 0 W/m 0,0 km/h (0 Bft) 100,00 %
05.02.2020 06:26 1,8 C 0,6 C -0,6 C 99 % 1033,4 hPa 0,0 l/m 0 min 0 min 0 W/m 0,0 km/h (0 Bft) 100,00 %
05.02.2020 06:28 1,8 C 0,6 C -0,6 C 99 % 1033,4 hPa 0,0 l/m 0 min 0 min 0 W/m 0,0 km/h (0 Bft) 97,87 %
05.02.2020 06:30 1,8 C 0,0 C -0,6 C 99 % 1033,4 hPa 0,0 l/m 0 min 0 min 0 W/m 0,0 km/h (0 Bft) 100,00 %
05.02.2020 06:32 1,8 C 0,0 C -0,6 C 99 % 1033,4 hPa 0,0 l/m 0 min 0 min 0 W/m 0,0 km/h (0 Bft) 100,00 %
05.02.2020 06:34 1,7 C 0,0 C -0,6 C 99 % 1033,4 hPa 0,0 l/m 0 min 0 min 0 W/m 0,0 km/h (0 Bft) 100,00 %
05.02.2020 06:36 1,7 C 0,0 C -0,6 C 99 % 1033,4 hPa 0,0 l/m 0 min 0 min 0 W/m 0,0 km/h (0 Bft) 100,00 %
05.02.2020 06:38 1,7 C 0,0 C -0,6 C 99 % 1033,4 hPa 0,0 l/m 0 min 0 min 0 W/m 0,0 km/h (0 Bft) 100,00 %
05.02.2020 06:40 1,7 C 0,0 C -0,6 C 99 % 1033,4 hPa 0,0 l/m 0 min 0 min 0 W/m 0,0 km/h (0 Bft) 100,00 %
05.02.2020 06:42 1,6 C 0,0 C -0,6 C 99 % 1033,4 hPa 0,0 l/m 0 min 0 min 0 W/m 0,0 km/h (0 Bft) 100,00 %
05.02.2020 06:44 1,6 C 0,0 C -0,6 C 99 % 1033,5 hPa 0,0 l/m 0 min 0 min 0 W/m 0,0 km/h (0 Bft) 100,00 %
05.02.2020 06:46 1,6 C 0,0 C -0,6 C 99 % 1033,5 hPa 0,0 l/m 0 min 0 min 0 W/m 0,0 km/h (0 Bft) 97,87 %
05.02.2020 06:48 1,6 C 0,0 C -1,1 C 99 % 1033,6 hPa 0,0 l/m 0 min 0 min 0 W/m 0,0 km/h (0 Bft) 100,00 %
05.02.2020 06:50 1,5 C 0,0 C -0,6 C 99 % 1033,6 hPa 0,0 l/m 0 min 0 min 0 W/m 0,0 km/h (0 Bft) 95,74 %
05.02.2020 06:52 1,5 C 0,0 C -0,6 C 99 % 1033,6 hPa 0,0 l/m 0 min 0 min 0 W/m 0,0 km/h (0 Bft) 100,00 %
05.02.2020 06:54 1,5 C 0,0 C -0,6 C 99 % 1033,6 hPa 0,0 l/m 0 min 0 min 0 W/m 0,0 km/h (0 Bft) 100,00 %
05.02.2020 06:56 1,4 C 0,0 C -0,6 C 99 % 1033,6 hPa 0,0 l/m 0 min 0 min 0 W/m 0,0 km/h (0 Bft) 100,00 %
05.02.2020 06:58 1,4 C 0,0 C -1,1 C 99 % 1033,7 hPa 0,0 l/m 0 min 0 min 0 W/m 0,0 km/h (0 Bft) 97,87 %
05.02.2020 07:00 1,4 C 0,0 C -1,1 C 99 % 1033,7 hPa 0,0 l/m 0 min 0 min 0 W/m 0,0 km/h (0 Bft) 100,00 %
05.02.2020 07:02 1,4 C 0,0 C -1,1 C 99 % 1033,7 hPa 0,0 l/m 0 min 0 min 0 W/m 0,0 km/h (0 Bft) 95,74 %
05.02.2020 07:04 1,3 C 0,0 C -1,1 C 99 % 1033,7 hPa 0,0 l/m 0 min 0 min 0 W/m 0,0 km/h (0 Bft) 97,87 %
05.02.2020 07:06 1,3 C 0,0 C -1,1 C 99 % 1033,7 hPa 0,0 l/m 0 min 0 min 0 W/m 0,0 km/h (0 Bft) 97,83 %
05.02.2020 07:08 1,3 C 0,0 C -1,1 C 99 % 1033,8 hPa 0,0 l/m 0 min 0 min 0 W/m 0,0 km/h (0 Bft) 97,87 %
05.02.2020 07:10 1,3 C 0,0 C -1,1 C 99 % 1033,8 hPa 0,0 l/m 0 min 0 min 0 W/m 0,0 km/h (0 Bft) 100,00 %
05.02.2020 07:12 1,3 C 0,0 C -1,1 C 99 % 1033,8 hPa 0,0 l/m 0 min 0 min 0 W/m 0,0 km/h (0 Bft) 95,74 %
05.02.2020 07:14 1,2 C 0,0 C -1,1 C 99 % 1033,8 hPa 0,0 l/m 0 min 0 min 0 W/m 0,0 km/h (0 Bft) 95,74 %
05.02.2020 07:16 1,2 C 0,0 C -1,1 C 99 % 1033,7 hPa 0,0 l/m 0 min 0 min 0 W/m 0,0 km/h (0 Bft) 93,48 %
05.02.2020 07:18 1,2 C 0,0 C -1,1 C 99 % 1033,8 hPa 0,0 l/m 0 min 0 min 0 W/m 0,0 km/h (0 Bft) 91,49 %
05.02.2020 07:20 1,2 C 0,0 C -1,1 C 99 % 1033,8 hPa 0,0 l/m 0 min 0 min 0 W/m 0,0 km/h (0 Bft) 93,62 %
05.02.2020 07:22 1,2 C 0,0 C -1,1 C 99 % 1033,9 hPa 0,0 l/m 0 min 0 min 0 W/m 0,0 km/h (0 Bft) 93,62 %
05.02.2020 07:24 1,2 C -0,6 C -1,1 C 99 % 1033,9 hPa 0,0 l/m 0 min 0 min 0 W/m 0,0 km/h (0 Bft) 93,62 %
05.02.2020 07:26 1,1 C -0,6 C -1,1 C 99 % 1034,0 hPa 0,0 l/m 0 min 0 min 0 W/m 0,0 km/h (0 Bft) 91,49 %
05.02.2020 07:28 1,1 C -0,6 C -1,1 C 99 % 1034,1 hPa 0,0 l/m 0 min 0 min 0 W/m 0,0 km/h (0 Bft) 93,48 %
05.02.2020 07:30 1,1 C -0,6 C -1,1 C 99 % 1034,1 hPa 0,0 l/m 0 min 0 min 0 W/m 0,0 km/h (0 Bft) 93,62 %
05.02.2020 07:32 1,1 C -0,6 C -1,7 C 99 % 1034,2 hPa 0,0 l/m 0 min 0 min 0 W/m 0,0 km/h (0 Bft) 93,62 %
05.02.2020 07:34 1,1 C -0,6 C -1,7 C 99 % 1034,2 hPa 0,0 l/m 0 min 0 min 0 W/m 0,0 km/h (0 Bft) 89,36 %
05.02.2020 07:36 1,1 C -0,6 C -1,7 C 99 % 1034,2 hPa 0,0 l/m 0 min 0 min 0 W/m 0,0 km/h (0 Bft) 93,62 %
05.02.2020 07:38 1,0 C -0,6 C -1,7 C 99 % 1034,2 hPa 0,0 l/m 0 min 0 min 0 W/m 0,0 km/h (0 Bft) 89,36 %
05.02.2020 07:40 1,0 C -0,6 C -1,7 C 99 % 1034,3 hPa 0,0 l/m 0 min 0 min 0 W/m 0,0 km/h (0 Bft) 95,65 %
05.02.2020 07:42 0,9 C -0,6 C -1,7 C 99 % 1034,3 hPa 0,0 l/m 0 min 0 min 0 W/m 0,0 km/h (0 Bft) 93,62 %
05.02.2020 07:44 0,9 C -0,6 C -1,7 C 99 % 1034,4 hPa 0,0 l/m 0 min 0 min 0 W/m 0,0 km/h (0 Bft) 93,62 %
05.02.2020 07:46 0,9 C -0,6 C -1,7 C 99 % 1034,4 hPa 0,0 l/m 0 min 0 min 0 W/m 0,0 km/h (0 Bft) 95,74 %
05.02.2020 07:48 0,9 C -0,6 C -1,7 C 99 % 1034,5 hPa 0,0 l/m 0 min 0 min 0 W/m 0,0 km/h (0 Bft) 95,74 %
05.02.2020 07:50 0,9 C 0,0 C -1,7 C 99 % 1034,5 hPa 0,0 l/m 0 min 0 min 0 W/m 0,0 km/h (0 Bft) 95,74 %
05.02.2020 07:52 0,8 C -0,6 C -1,7 C 99 % 1034,5 hPa 0,0 l/m 0 min 0 min 0 W/m 0,0 km/h (0 Bft) 91,30 %
05.02.2020 07:54 0,8 C -0,6 C -1,7 C 99 % 1034,6 hPa 0,0 l/m 0 min 0 min 0 W/m 0,0 km/h (0 Bft) 95,74 %
05.02.2020 07:56 0,8 C -0,6 C -1,7 C 99 % 1034,6 hPa 0,0 l/m 0 min 0 min 0 W/m 0,0 km/h (0 Bft) 95,74 %
05.02.2020 07:58 0,8 C -0,6 C -1,7 C 99 % 1034,6 hPa 0,0 l/m 0 min 0 min 0 W/m 0,0 km/h (0 Bft) 95,74 %
05.02.2020 08:00 0,7 C -1,1 C -1,7 C 99 % 1034,6 hPa 0,0 l/m 0 min 0 min 0 W/m 0,0 km/h (0 Bft) 95,74 %
05.02.2020 08:02 0,7 C -1,1 C -1,7 C 99 % 1034,7 hPa 0,0 l/m 0 min 0 min 0 W/m 0,0 km/h (0 Bft) 97,87 %
05.02.2020 08:04 0,7 C -1,1 C -1,7 C 99 % 1034,7 hPa 0,0 l/m 0 min 0 min 0 W/m 0,0 km/h (0 Bft) 97,83 %
05.02.2020 08:06 0,6 C -0,6 C -1,7 C 99 % 1034,8 hPa 0,0 l/m 0 min 0 min 0 W/m 0,0 km/h (0 Bft) 97,87 %
05.02.2020 08:08 0,6 C -0,6 C -1,7 C 99 % 1034,8 hPa 0,0 l/m 0 min 0 min 2 W/m 0,0 km/h (0 Bft) 97,87 %
05.02.2020 08:10 0,6 C -0,6 C -1,7 C 99 % 1034,9 hPa 0,0 l/m 0 min 0 min 5 W/m 0,0 km/h (0 Bft) 97,87 %
05.02.2020 08:12 0,6 C 0,0 C -1,7 C 99 % 1034,9 hPa 0,0 l/m 0 min 0 min 5 W/m 0,0 km/h (0 Bft) 97,87 %
05.02.2020 08:14 0,6 C 0,0 C -1,1 C 99 % 1034,9 hPa 0,0 l/m 0 min 0 min 7 W/m 0,0 km/h (0 Bft) 93,62 %
05.02.2020 08:16 0,6 C -0,6 C -1,1 C 99 % 1035,0 hPa 0,0 l/m 0 min 0 min 7 W/m 0,0 km/h (0 Bft) 97,83 %
05.02.2020 08:18 0,6 C -0,6 C -1,1 C 99 % 1035,0 hPa 0,0 l/m 0 min 0 min 8 W/m 0,0 km/h (0 Bft) 97,87 %
05.02.2020 08:20 0,6 C -0,6 C -1,1 C 99 % 1035,0 hPa 0,0 l/m 0 min 0 min 9 W/m 0,0 km/h (0 Bft) 97,87 %
05.02.2020 08:22 0,6 C 0,0 C -1,1 C 99 % 1035,1 hPa 0,0 l/m 0 min 0 min 11 W/m 0,0 km/h (0 Bft) 97,87 %
05.02.2020 08:24 0,6 C 0,0 C -1,1 C 99 % 1035,1 hPa 0,0 l/m 0 min 0 min 12 W/m 0,0 km/h (0 Bft) 95,74 %
05.02.2020 08:26 0,6 C 0,0 C -1,1 C 99 % 1035,2 hPa 0,0 l/m 0 min 0 min 14 W/m 0,0 km/h (0 Bft) 97,83 %
05.02.2020 08:28 0,6 C 0,0 C -1,1 C 99 % 1035,2 hPa 0,0 l/m 0 min 0 min 14 W/m 0,0 km/h (0 Bft) 100,00 %
05.02.2020 08:30 0,5 C 0,0 C -1,1 C 99 % 1035,2 hPa 0,0 l/m 0 min 0 min 16 W/m 0,0 km/h (0 Bft) 97,87 %
05.02.2020 08:32 0,5 C 0,0 C -0,6 C 99 % 1035,3 hPa 0,0 l/m 0 min 0 min 16 W/m 0,0 km/h (0 Bft) 93,62 %
05.02.2020 08:34 0,5 C 0,6 C -0,6 C 99 % 1035,4 hPa 0,0 l/m 0 min 0 min 18 W/m 0,0 km/h (0 Bft) 95,74 %
05.02.2020 08:36 0,5 C 0,6 C -0,6 C 99 % 1035,4 hPa 0,0 l/m 0 min 0 min 20 W/m 0,0 km/h (0 Bft) 97,87 %
05.02.2020 08:38 0,5 C 0,6 C -0,6 C 99 % 1035,3 hPa 0,0 l/m 0 min 0 min 21 W/m 0,0 km/h (0 Bft) 100,00 %
05.02.2020 08:40 0,6 C 0,6 C -0,6 C 99 % 1035,3 hPa 0,0 l/m 0 min 0 min 24 W/m 0,0 km/h (0 Bft) 97,87 %
05.02.2020 08:42 0,6 C 0,6 C -0,6 C 99 % 1035,3 hPa 0,0 l/m 0 min 0 min 25 W/m 0,0 km/h (0 Bft) 100,00 %
05.02.2020 08:44 0,6 C 0,6 C 0,0 C 99 % 1035,4 hPa 0,0 l/m 0 min 0 min 25 W/m 0,0 km/h (0 Bft) 100,00 %
05.02.2020 08:46 0,6 C 0,6 C 0,0 C 99 % 1035,3 hPa 0,0 l/m 0 min 0 min 26 W/m 0,0 km/h (0 Bft) 100,00 %
05.02.2020 08:48 0,6 C 0,6 C 0,0 C 99 % 1035,3 hPa 0,0 l/m 0 min 0 min 29 W/m 0,0 km/h (0 Bft) 100,00 %
05.02.2020 08:50 0,6 C 0,6 C 0,0 C 99 % 1035,4 hPa 0,0 l/m 0 min 0 min 31 W/m 0,0 km/h (0 Bft) 100,00 %
05.02.2020 08:52 0,6 C 0,6 C 0,0 C 99 % 1035,4 hPa 0,0 l/m 0 min 0 min 32 W/m 0,0 km/h (0 Bft) 97,87 %
05.02.2020 08:54 0,6 C 1,1 C 0,0 C 99 % 1035,4 hPa 0,0 l/m 0 min 0 min 33 W/m 0,0 km/h (0 Bft) 100,00 %
05.02.2020 08:56 0,7 C 1,1 C 0,0 C 99 % 1035,5 hPa 0,0 l/m 0 min 0 min 35 W/m 0,0 km/h (0 Bft) 97,87 %
05.02.2020 08:58 0,7 C 1,1 C 0,6 C 99 % 1035,5 hPa 0,0 l/m 0 min 0 min 37 W/m 0,0 km/h (0 Bft) 100,00 %
05.02.2020 09:00 0,8 C 1,1 C 0,6 C 99 % 1035,5 hPa 0,0 l/m 0 min 0 min 41 W/m 0,0 km/h (0 Bft) 100,00 %
05.02.2020 09:02 0,8 C 1,1 C 0,6 C 99 % 1035,5 hPa 0,0 l/m 0 min 0 min 45 W/m 0,0 km/h (0 Bft) 95,65 %
05.02.2020 09:04 0,8 C 1,7 C 0,6 C 99 % 1035,4 hPa 0,0 l/m 0 min 0 min 49 W/m 0,0 km/h (0 Bft) 97,87 %
05.02.2020 09:06 0,9 C 1,7 C 0,6 C 99 % 1035,5 hPa 0,0 l/m 0 min 0 min 58 W/m 0,0 km/h (0 Bft) 97,87 %
05.02.2020 09:08 0,9 C 1,7 C 0,6 C 99 % 1035,4 hPa 0,0 l/m 0 min 0 min 62 W/m 0,0 km/h (0 Bft) 100,00 %
05.02.2020 09:10 1,0 C 1,7 C 1,1 C 99 % 1035,4 hPa 0,0 l/m 0 min 0 min 64 W/m 0,0 km/h (0 Bft) 97,87 %
05.02.2020 09:12 1,1 C 2,2 C 1,1 C 99 % 1035,5 hPa 0,0 l/m 0 min 0 min 63 W/m 0,0 km/h (0 Bft) 97,87 %
05.02.2020 09:14 1,1 C 2,2 C 1,1 C 99 % 1035,5 hPa 0,0 l/m 0 min 0 min 60 W/m 0,0 km/h (0 Bft) 95,65 %
05.02.2020 09:16 1,2 C 2,2 C 1,1 C 99 % 1035,5 hPa 0,0 l/m 0 min 0 min 62 W/m 0,0 km/h (0 Bft) 97,87 %
05.02.2020 09:18 1,3 C 2,2 C 1,1 C 99 % 1035,5 hPa 0,0 l/m 0 min 0 min 63 W/m 0,0 km/h (0 Bft) 95,74 %
05.02.2020 09:20 1,4 C 2,2 C 1,1 C 99 % 1035,5 hPa 0,0 l/m 0 min 0 min 63 W/m 0,0 km/h (0 Bft) 97,87 %
05.02.2020 09:22 1,4 C 2,2 C 1,1 C 99 % 1035,5 hPa 0,0 l/m 0 min 0 min 63 W/m 0,0 km/h (0 Bft) 97,87 %
05.02.2020 09:24 1,5 C 2,2 C 1,7 C 99 % 1035,6 hPa 0,0 l/m 0 min 0 min 63 W/m 0,0 km/h (0 Bft) 93,48 %
05.02.2020 09:26 1,6 C 2,2 C 1,7 C 99 % 1035,7 hPa 0,0 l/m 0 min 0 min 63 W/m 0,0 km/h (0 Bft) 97,87 %
05.02.2020 09:28 1,6 C 2,2 C 1,7 C 99 % 1035,7 hPa 0,0 l/m 0 min 0 min 61 W/m 0,0 km/h (0 Bft) 97,87 %
05.02.2020 09:30 1,6 C 2,2 C 1,7 C 99 % 1035,8 hPa 0,0 l/m 0 min 0 min 61 W/m 0,0 km/h (0 Bft) 97,87 %
05.02.2020 09:32 1,7 C 2,2 C 1,7 C 99 % 1035,8 hPa 0,0 l/m 0 min 0 min 65 W/m 0,0 km/h (0 Bft) 95,74 %
05.02.2020 09:34 1,7 C 2,2 C 1,7 C 99 % 1035,8 hPa 0,0 l/m 0 min 0 min 70 W/m 0,0 km/h (0 Bft) 97,87 %
05.02.2020 09:36 1,8 C 2,8 C 1,7 C 99 % 1035,9 hPa 0,0 l/m 0 min 0 min 78 W/m 0,0 km/h (0 Bft) 97,83 %
05.02.2020 09:38 1,8 C 2,8 C 1,7 C 99 % 1035,9 hPa 0,0 l/m 0 min 0 min 95 W/m 0,0 km/h (0 Bft) 97,87 %
05.02.2020 09:40 1,8 C 2,8 C 1,7 C 99 % 1036,0 hPa 0,0 l/m 0 min 0 min 85 W/m 0,0 km/h (0 Bft) 97,87 %
05.02.2020 09:42 1,9 C 2,8 C 1,7 C 99 % 1035,9 hPa 0,0 l/m 0 min 0 min 84 W/m 0,0 km/h (0 Bft) 97,87 %
05.02.2020 09:44 2,0 C 2,8 C 1,7 C 99 % 1036,0 hPa 0,0 l/m 0 min 0 min 84 W/m 0,0 km/h (0 Bft) 97,87 %
05.02.2020 09:46 2,1 C 2,8 C 1,7 C 99 % 1036,0 hPa 0,0 l/m 0 min 0 min 85 W/m 0,0 km/h (0 Bft) 95,74 %
05.02.2020 09:48 2,2 C 2,8 C 2,2 C 99 % 1036,0 hPa 0,0 l/m 0 min 0 min 84 W/m 0,0 km/h (0 Bft) 97,83 %
05.02.2020 09:50 2,2 C 3,3 C 2,2 C 99 % 1036,0 hPa 0,0 l/m 0 min 0 min 89 W/m 0,0 km/h (0 Bft) 91,49 %
05.02.2020 09:52 2,3 C 2,8 C 2,2 C 99 % 1036,1 hPa 0,0 l/m 0 min 0 min 90 W/m 0,0 km/h (0 Bft) 93,62 %
05.02.2020 09:54 2,3 C 3,3 C 2,2 C 100 % 1036,1 hPa 0,0 l/m 0 min 0 min 91 W/m 0,0 km/h (0 Bft) 93,62 %
05.02.2020 09:56 2,4 C 3,3 C 2,2 C 100 % 1036,2 hPa 0,0 l/m 0 min 0 min 91 W/m 0,0 km/h (0 Bft) 95,74 %
05.02.2020 09:58 2,5 C 3,3 C 2,2 C 100 % 1036,2 hPa 0,0 l/m 0 min 0 min 90 W/m 0,0 km/h (0 Bft) 95,74 %
05.02.2020 10:00 2,6 C 3,3 C 2,2 C 99 % 1036,2 hPa 0,0 l/m 0 min 0 min 95 W/m 0,0 km/h (0 Bft) 97,83 %
05.02.2020 10:02 2,6 C 3,3 C 2,2 C 99 % 1036,3 hPa 0,0 l/m 0 min 0 min 91 W/m 0,0 km/h (0 Bft) 89,36 %
05.02.2020 10:04 2,7 C 3,3 C 2,2 C 99 % 1036,3 hPa 0,0 l/m 0 min 0 min 100 W/m 0,0 km/h (0 Bft) 95,74 %
05.02.2020 10:06 2,7 C 3,9 C 2,2 C 100 % 1036,3 hPa 0,0 l/m 0 min 0 min 117 W/m 0,0 km/h (0 Bft) 93,62 %
05.02.2020 10:08 2,8 C 4,4 C 2,2 C 100 % 1036,3 hPa 0,0 l/m 2 min 0 min 142 W/m 0,0 km/h (0 Bft) 97,87 %
05.02.2020 10:10 2,8 C 5,6 C 2,8 C 100 % 1036,4 hPa 0,0 l/m 2 min 0 min 216 W/m 0,0 km/h (0 Bft) 97,83 %
05.02.2020 10:12 2,9 C 5,6 C 2,8 C 100 % 1036,4 hPa 0,0 l/m 2 min 0 min 227 W/m 0,0 km/h (0 Bft) 95,74 %
05.02.2020 10:14 2,9 C 5,6 C 2,8 C 100 % 1036,4 hPa 0,0 l/m 2 min 0 min 179 W/m 0,0 km/h (0 Bft) 97,87 %
05.02.2020 10:16 3,0 C 5,0 C 2,8 C 100 % 1036,4 hPa 0,0 l/m 2 min 0 min 172 W/m 0,0 km/h (0 Bft) 100,00 %
05.02.2020 10:18 3,1 C 5,6 C 2,8 C 100 % 1036,5 hPa 0,0 l/m 2 min 0 min 178 W/m 0,0 km/h (0 Bft) 100,00 %
05.02.2020 10:20 3,2 C 6,1 C 2,8 C 100 % 1036,5 hPa 0,0 l/m 2 min 0 min 208 W/m 0,0 km/h (0 Bft) 95,74 %
05.02.2020 10:22 3,3 C 5,6 C 3,3 C 100 % 1036,5 hPa 0,0 l/m 2 min 0 min 193 W/m 0,0 km/h (0 Bft) 97,83 %
05.02.2020 10:24 3,4 C 5,6 C 3,3 C 100 % 1036,6 hPa 0,0 l/m 2 min 0 min 184 W/m 0,0 km/h (0 Bft) 97,87 %
05.02.2020 10:26 3,4 C 5,0 C 3,3 C 100 % 1036,6 hPa 0,0 l/m 2 min 0 min 161 W/m 0,0 km/h (0 Bft) 97,87 %
05.02.2020 10:28 3,6 C 5,0 C 3,3 C 100 % 1036,6 hPa 0,0 l/m 2 min 0 min 156 W/m 0,0 km/h (0 Bft) 57,45 %
05.02.2020 10:30 3,7 C 5,6 C 3,3 C 100 % 1036,7 hPa 0,0 l/m 2 min 0 min 151 W/m 0,0 km/h (0 Bft) 95,12 %
05.02.2020 10:32 3,8 C 5,6 C 3,9 C 100 % 1036,7 hPa 0,0 l/m 2 min 0 min 163 W/m 0,0 km/h (0 Bft) 97,87 %
05.02.2020 10:34 3,8 C 7,2 C 3,9 C 100 % 1036,7 hPa 0,0 l/m 2 min 0 min 239 W/m 0,0 km/h (0 Bft) 97,83 %
05.02.2020 10:36 3,9 C 7,8 C 3,9 C 100 % 1036,7 hPa 0,0 l/m 2 min 0 min 298 W/m 0,0 km/h (0 Bft) 97,87 %
05.02.2020 10:38 4,1 C 7,2 C 3,9 C 100 % 1036,7 hPa 0,0 l/m 2 min 0 min 222 W/m 0,0 km/h (0 Bft) 97,87 %
05.02.2020 10:40 4,1 C 7,2 C 3,9 C 100 % 1036,8 hPa 0,0 l/m 2 min 0 min 196 W/m 0,0 km/h (0 Bft) 97,87 %
05.02.2020 10:42 4,2 C 6,7 C 3,9 C 100 % 1036,8 hPa 0,0 l/m 2 min 0 min 193 W/m 0,0 km/h (0 Bft) 97,87 %
05.02.2020 10:44 4,3 C 6,7 C 3,9 C 100 % 1036,8 hPa 0,0 l/m 2 min 0 min 173 W/m 0,0 km/h (0 Bft) 97,87 %
05.02.2020 10:46 4,3 C 6,7 C 3,9 C 100 % 1036,8 hPa 0,0 l/m 2 min 0 min 198 W/m 0,0 km/h (0 Bft) 97,83 %
05.02.2020 10:48 4,4 C 6,7 C 3,9 C 100 % 1036,9 hPa 0,0 l/m 2 min 0 min 195 W/m 0,0 km/h (0 Bft) 97,87 %
05.02.2020 10:50 4,5 C 6,1 C 3,9 C 100 % 1036,9 hPa 0,0 l/m 2 min 0 min 165 W/m 3,2 km/h (1 Bft) 97,87 %
05.02.2020 10:52 4,6 C 5,6 C 3,9 C 100 % 1037,0 hPa 0,0 l/m 2 min 0 min 171 W/m 0,0 km/h (0 Bft) 97,87 %
05.02.2020 10:54 4,6 C 6,1 C 3,9 C 100 % 1037,0 hPa 0,0 l/m 2 min 0 min 189 W/m 0,0 km/h (0 Bft) 97,87 %
05.02.2020 10:56 4,6 C 6,1 C 3,9 C 100 % 1037,1 hPa 0,0 l/m 2 min 0 min 215 W/m 3,2 km/h (1 Bft) 97,87 %
05.02.2020 10:58 4,7 C 6,1 C 4,4 C 100 % 1037,1 hPa 0,0 l/m 2 min 0 min 178 W/m 3,2 km/h (1 Bft) 100,00 %
05.02.2020 11:00 4,7 C 6,1 C 4,4 C 100 % 1037,1 hPa 0,0 l/m 2 min 0 min 179 W/m 0,0 km/h (0 Bft) 100,00 %
05.02.2020 11:02 4,8 C 6,1 C 4,4 C 100 % 1037,1 hPa 0,0 l/m 2 min 0 min 179 W/m 3,2 km/h (1 Bft) 97,87 %
05.02.2020 11:04 4,8 C 6,1 C 4,4 C 100 % 1037,2 hPa 0,0 l/m 2 min 0 min 165 W/m 3,2 km/h (1 Bft) 100,00 %
05.02.2020 11:06 4,8 C 6,1 C 4,4 C 100 % 1037,2 hPa 0,0 l/m 0 min 0 min 164 W/m 6,4 km/h (2 Bft) 97,87 %
05.02.2020 11:08 4,8 C 6,1 C 4,4 C 100 % 1037,3 hPa 0,0 l/m 2 min 0 min 174 W/m 0,0 km/h (0 Bft) 100,00 %
05.02.2020 11:10 4,8 C 6,1 C 4,4 C 100 % 1037,3 hPa 0,0 l/m 2 min 0 min 184 W/m 0,0 km/h (0 Bft) 97,87 %
05.02.2020 11:12 4,8 C 6,1 C 4,4 C 100 % 1037,3 hPa 0,0 l/m 2 min 0 min 185 W/m 6,4 km/h (2 Bft) 100,00 %
05.02.2020 11:14 4,9 C 7,2 C 4,4 C 100 % 1037,3 hPa 0,0 l/m 2 min 0 min 225 W/m 0,0 km/h (0 Bft) 100,00 %
05.02.2020 11:16 4,9 C 7,8 C 4,4 C 100 % 1037,3 hPa 0,0 l/m 2 min 0 min 279 W/m 3,2 km/h (1 Bft) 100,00 %
05.02.2020 11:18 5,0 C 7,8 C 4,4 C 100 % 1037,2 hPa 0,0 l/m 2 min 0 min 233 W/m 3,2 km/h (1 Bft) 100,00 %
05.02.2020 11:20 5,1 C 7,8 C 4,4 C 100 % 1037,2 hPa 0,0 l/m 2 min 0 min 201 W/m 0,0 km/h (0 Bft) 100,00 %
05.02.2020 11:22 5,1 C 7,8 C 4,4 C 100 % 1037,3 hPa 0,0 l/m 2 min 0 min 176 W/m 0,0 km/h (0 Bft) 100,00 %
05.02.2020 11:24 5,1 C 7,8 C 4,4 C 100 % 1037,2 hPa 0,0 l/m 2 min 0 min 185 W/m 0,0 km/h (0 Bft) 100,00 %
05.02.2020 11:26 5,1 C 7,8 C 4,4 C 100 % 1037,2 hPa 0,0 l/m 2 min 0 min 178 W/m 0,0 km/h (0 Bft) 100,00 %
05.02.2020 11:28 5,1 C 7,2 C 4,4 C 100 % 1037,2 hPa 0,0 l/m 0 min 0 min 136 W/m 0,0 km/h (0 Bft) 100,00 %
05.02.2020 11:30 5,2 C 6,7 C 4,4 C 100 % 1037,2 hPa 0,0 l/m 0 min 0 min 124 W/m 3,2 km/h (1 Bft) 100,00 %
05.02.2020 11:32 5,2 C 7,8 C 4,4 C 100 % 1037,2 hPa 0,0 l/m 2 min 0 min 250 W/m 0,0 km/h (0 Bft) 97,83 %
05.02.2020 11:34 5,2 C 8,3 C 4,4 C 100 % 1037,3 hPa 0,0 l/m 2 min 0 min 322 W/m 0,0 km/h (0 Bft) 100,00 %
05.02.2020 11:36 5,2 C 7,2 C 4,4 C 100 % 1037,3 hPa 0,0 l/m 2 min 0 min 224 W/m 0,0 km/h (0 Bft) 100,00 %
05.02.2020 11:38 5,1 C 6,7 C 4,4 C 100 % 1037,3 hPa 0,0 l/m 0 min 0 min 159 W/m 0,0 km/h (0 Bft) 100,00 %
05.02.2020 11:40 5,1 C 7,8 C 3,9 C 100 % 1037,4 hPa 0,0 l/m 2 min 0 min 290 W/m 0,0 km/h (0 Bft) 95,74 %
05.02.2020 11:42 5,1 C 7,2 C 4,4 C 100 % 1037,4 hPa 0,0 l/m 2 min 0 min 278 W/m 0,0 km/h (0 Bft) 97,87 %
05.02.2020 11:44 5,1 C 6,1 C 3,9 C 100 % 1037,4 hPa 0,0 l/m 0 min 0 min 154 W/m 0,0 km/h (0 Bft) 97,83 %
05.02.2020 11:46 4,9 C 5,6 C 3,9 C 100 % 1037,5 hPa 0,0 l/m 0 min 0 min 147 W/m 0,0 km/h (0 Bft) 97,87 %
05.02.2020 11:48 4,9 C 5,6 C 3,9 C 100 % 1037,5 hPa 0,0 l/m 0 min 0 min 154 W/m 9,7 km/h (2 Bft) 97,87 %
05.02.2020 11:50 4,8 C 5,6 C 3,9 C 100 % 1037,5 hPa 0,0 l/m 0 min 0 min 151 W/m 16,1 km/h (3 Bft) 97,87 %
05.02.2020 11:52 4,8 C 5,6 C 3,9 C 100 % 1037,5 hPa 0,0 l/m 0 min 0 min 176 W/m 3,2 km/h (1 Bft) 97,87 %
05.02.2020 11:54 4,8 C 5,6 C 3,9 C 100 % 1037,6 hPa 0,0 l/m 2 min 0 min 252 W/m 6,4 km/h (2 Bft) 97,87 %
05.02.2020 11:56 4,8 C 5,6 C 3,9 C 100 % 1037,5 hPa 0,0 l/m 0 min 0 min 185 W/m 0,0 km/h (0 Bft) 95,65 %
05.02.2020 11:58 4,8 C 5,6 C 4,4 C 100 % 1037,6 hPa 0,0 l/m 0 min 0 min 182 W/m 0,0 km/h (0 Bft) 97,87 %
05.02.2020 12:00 4,8 C 5,6 C 4,4 C 100 % 1037,6 hPa 0,0 l/m 0 min 0 min 163 W/m 0,0 km/h (0 Bft) 97,87 %
05.02.2020 12:02 4,8 C 5,6 C 3,9 C 100 % 1037,6 hPa 0,0 l/m 0 min 0 min 155 W/m 0,0 km/h (0 Bft) 53,49 %
05.02.2020 12:04 4,8 C 5,6 C 3,9 C 100 % 1037,6 hPa 0,0 l/m 0 min 0 min 144 W/m 0,0 km/h (0 Bft) 97,87 %
05.02.2020 12:06 4,8 C 5,6 C 4,4 C 100 % 1037,7 hPa 0,0 l/m 0 min 0 min 145 W/m 0,0 km/h (0 Bft) 97,83 %
05.02.2020 12:08 4,8 C 6,1 C 4,4 C 99 % 1037,7 hPa 0,0 l/m 0 min 0 min 154 W/m 0,0 km/h (0 Bft) 93,62 %
05.02.2020 12:10 4,8 C 6,7 C 4,4 C 99 % 1037,7 hPa 0,0 l/m 0 min 0 min 173 W/m 0,0 km/h (0 Bft) 93,62 %
05.02.2020 12:12 4,9 C 6,7 C 4,4 C 99 % 1037,6 hPa 0,0 l/m 0 min 0 min 184 W/m 12,9 km/h (3 Bft) 93,62 %
05.02.2020 12:14 4,9 C 6,7 C 4,4 C 99 % 1037,6 hPa 0,0 l/m 0 min 0 min 182 W/m 0,0 km/h (0 Bft) 100,00 %
05.02.2020 12:16 5,1 C 8,9 C 4,4 C 99 % 1037,6 hPa 0,0 l/m 2 min 0 min 243 W/m 0,0 km/h (0 Bft) 97,87 %
05.02.2020 12:18 5,2 C 11,1 C 5,0 C 99 % 1037,6 hPa 0,0 l/m 2 min 0 min 509 W/m 0,0 km/h (0 Bft) 100,00 %
05.02.2020 12:20 5,4 C 13,3 C 5,6 C 99 % 1037,6 hPa 0,0 l/m 2 min 0 min 396 W/m 9,7 km/h (2 Bft) 100,00 %
05.02.2020 12:22 5,6 C 14,4 C 5,6 C 99 % 1037,6 hPa 0,0 l/m 2 min 0 min 397 W/m 12,9 km/h (3 Bft) 100,00 %
05.02.2020 12:24 5,7 C 13,3 C 5,6 C 99 % 1037,7 hPa 0,0 l/m 2 min 0 min 478 W/m 9,7 km/h (2 Bft) 100,00 %
05.02.2020 12:26 5,8 C 12,2 C 5,6 C 99 % 1037,7 hPa 0,0 l/m 2 min 0 min 271 W/m 6,4 km/h (2 Bft) 97,87 %
05.02.2020 12:28 5,9 C 13,3 C 5,6 C 99 % 1037,6 hPa 0,0 l/m 2 min 0 min 362 W/m 3,2 km/h (1 Bft) 95,74 %
05.02.2020 12:30 6,1 C 14,4 C 5,6 C 99 % 1037,6 hPa 0,0 l/m 2 min 0 min 517 W/m 12,9 km/h (3 Bft) 97,83 %
05.02.2020 12:32 6,2 C 14,4 C 6,1 C 99 % 1037,7 hPa 0,0 l/m 2 min 0 min 552 W/m 12,9 km/h (3 Bft) 95,74 %
05.02.2020 12:34 6,3 C 13,9 C 5,6 C 99 % 1037,6 hPa 0,0 l/m 2 min 0 min 387 W/m 9,7 km/h (2 Bft) 97,87 %
05.02.2020 12:36 6,5 C 14,4 C 6,1 C 99 % 1037,6 hPa 0,0 l/m 2 min 0 min 442 W/m 19,3 km/h (3 Bft) 97,87 %
05.02.2020 12:38 6,6 C 15,6 C 6,1 C 98 % 1037,6 hPa 0,0 l/m 2 min 0 min 400 W/m 12,9 km/h (3 Bft) 97,87 %
05.02.2020 12:40 6,7 C 15,6 C 7,2 C 98 % 1037,7 hPa 0,0 l/m 2 min 0 min 401 W/m 16,1 km/h (3 Bft) 97,87 %
05.02.2020 12:42 6,9 C 15,6 C 7,8 C 97 % 1037,7 hPa 0,0 l/m 2 min 0 min 401 W/m 12,9 km/h (3 Bft) 97,83 %
05.02.2020 12:44 7,1 C 15,6 C 8,3 C 97 % 1037,7 hPa 0,0 l/m 2 min 0 min 556 W/m 16,1 km/h (3 Bft) 97,87 %
05.02.2020 12:46 7,2 C 15,6 C 8,9 C 97 % 1037,7 hPa 0,0 l/m 2 min 0 min 553 W/m 16,1 km/h (3 Bft) 95,74 %
05.02.2020 12:48 7,4 C 15,6 C 8,9 C 96 % 1037,7 hPa 0,0 l/m 2 min 0 min 401 W/m 12,9 km/h (3 Bft) 97,87 %
05.02.2020 12:50 7,6 C 15,6 C 7,8 C 95 % 1037,7 hPa 0,0 l/m 2 min 0 min 401 W/m 12,9 km/h (3 Bft) 97,87 %
05.02.2020 12:52 7,7 C 16,1 C 8,3 C 94 % 1037,7 hPa 0,0 l/m 2 min 0 min 401 W/m 6,4 km/h (2 Bft) 97,87 %
05.02.2020 12:54 7,9 C 16,1 C 7,8 C 93 % 1037,7 hPa 0,0 l/m 2 min 0 min 401 W/m 9,7 km/h (2 Bft) 100,00 %
05.02.2020 12:56 8,0 C 13,9 C 7,2 C 91 % 1037,6 hPa 0,0 l/m 2 min 0 min 479 W/m 12,9 km/h (3 Bft) 100,00 %
05.02.2020 12:58 8,0 C 14,4 C 7,2 C 90 % 1037,6 hPa 0,0 l/m 2 min 0 min 484 W/m 12,9 km/h (3 Bft) 100,00 %
05.02.2020 13:00 8,1 C 15,0 C 7,2 C 88 % 1037,5 hPa 0,0 l/m 2 min 0 min 497 W/m 16,1 km/h (3 Bft) 95,74 %
05.02.2020 13:02 8,1 C 15,0 C 6,7 C 87 % 1037,6 hPa 0,0 l/m 2 min 0 min 479 W/m 12,9 km/h (3 Bft) 100,00 %
05.02.2020 13:04 8,2 C 15,0 C 7,2 C 87 % 1037,5 hPa 0,0 l/m 2 min 0 min 448 W/m 9,7 km/h (2 Bft) 100,00 %
05.02.2020 13:06 8,3 C 15,6 C 6,7 C 86 % 1037,4 hPa 0,0 l/m 2 min 0 min 448 W/m 3,2 km/h (1 Bft) 100,00 %
05.02.2020 13:08 8,3 C 14,4 C 6,7 C 85 % 1037,4 hPa 0,0 l/m 2 min 0 min 417 W/m 3,2 km/h (1 Bft) 100,00 %
05.02.2020 13:10 8,3 C 13,9 C 6,1 C 84 % 1037,4 hPa 0,0 l/m 2 min 0 min 372 W/m 16,1 km/h (3 Bft) 100,00 %
05.02.2020 13:12 8,3 C 13,9 C 6,1 C 83 % 1037,4 hPa 0,0 l/m 2 min 0 min 360 W/m 6,4 km/h (2 Bft) 100,00 %
05.02.2020 13:14 8,4 C 13,9 C 5,6 C 82 % 1037,4 hPa 0,0 l/m 2 min 0 min 372 W/m 6,4 km/h (2 Bft) 100,00 %
05.02.2020 13:16 8,4 C 12,8 C 5,6 C 82 % 1037,4 hPa 0,0 l/m 2 min 0 min 381 W/m 9,7 km/h (2 Bft) 97,83 %
05.02.2020 13:18 8,4 C 12,2 C 5,6 C 80 % 1037,4 hPa 0,0 l/m 2 min 0 min 225 W/m 9,7 km/h (2 Bft) 97,87 %
05.02.2020 13:20 8,4 C 12,8 C 5,6 C 80 % 1037,4 hPa 0,0 l/m 2 min 0 min 275 W/m 3,2 km/h (1 Bft) 100,00 %
05.02.2020 13:22 8,4 C 13,9 C 5,6 C 80 % 1037,3 hPa 0,0 l/m 2 min 0 min 382 W/m 3,2 km/h (1 Bft) 100,00 %
05.02.2020 13:24 8,4 C 14,4 C 5,0 C 80 % 1037,3 hPa 0,0 l/m 2 min 0 min 413 W/m 3,2 km/h (1 Bft) 100,00 %
05.02.2020 13:26 8,4 C 15,0 C 5,0 C 80 % 1037,4 hPa 0,0 l/m 2 min 0 min 420 W/m 0,0 km/h (0 Bft) 100,00 %
05.02.2020 13:28 8,4 C 15,6 C 5,6 C 80 % 1037,4 hPa 0,0 l/m 2 min 0 min 422 W/m 0,0 km/h (0 Bft) 100,00 %
05.02.2020 13:30 8,5 C 15,6 C 5,6 C 80 % 1037,4 hPa 0,0 l/m 2 min 0 min 419 W/m 9,7 km/h (2 Bft) 97,87 %
05.02.2020 13:32 8,6 C 14,4 C 5,6 C 80 % 1037,4 hPa 0,0 l/m 2 min 0 min 417 W/m 0,0 km/h (0 Bft) 95,74 %
05.02.2020 13:34 8,6 C 14,4 C 6,1 C 79 % 1037,3 hPa 0,0 l/m 2 min 0 min 412 W/m 0,0 km/h (0 Bft) 97,87 %
05.02.2020 13:36 8,6 C 14,4 C 6,1 C 78 % 1037,3 hPa 0,0 l/m 2 min 0 min 411 W/m 0,0 km/h (0 Bft) 93,62 %
05.02.2020 13:38 8,6 C 14,4 C 6,1 C 79 % 1037,3 hPa 0,0 l/m 2 min 0 min 410 W/m 12,9 km/h (3 Bft) 95,74 %
05.02.2020 13:40 8,6 C 13,9 C 6,1 C 78 % 1037,3 hPa 0,0 l/m 2 min 0 min 409 W/m 12,9 km/h (3 Bft) 97,83 %
05.02.2020 13:42 8,6 C 14,4 C 6,1 C 78 % 1037,3 hPa 0,0 l/m 2 min 0 min 410 W/m 12,9 km/h (3 Bft) 97,87 %
05.02.2020 13:44 8,6 C 15,0 C 6,1 C 78 % 1037,2 hPa 0,0 l/m 2 min 0 min 411 W/m 6,4 km/h (2 Bft) 95,74 %
05.02.2020 13:46 8,6 C 15,0 C 6,1 C 79 % 1037,2 hPa 0,0 l/m 2 min 0 min 412 W/m 6,4 km/h (2 Bft) 97,87 %
05.02.2020 13:48 8,7 C 15,6 C 6,1 C 79 % 1037,2 hPa 0,0 l/m 2 min 0 min 408 W/m 9,7 km/h (2 Bft) 97,87 %
05.02.2020 13:50 8,7 C 15,0 C 6,1 C 78 % 1037,1 hPa 0,0 l/m 2 min 0 min 406 W/m 9,7 km/h (2 Bft) 97,87 %
05.02.2020 13:52 8,7 C 13,9 C 6,1 C 77 % 1037,1 hPa 0,0 l/m 2 min 0 min 407 W/m 3,2 km/h (1 Bft) 97,83 %
05.02.2020 13:54 8,7 C 12,8 C 6,1 C 76 % 1037,1 hPa 0,0 l/m 2 min 0 min 412 W/m 0,0 km/h (0 Bft) 97,87 %
05.02.2020 13:56 8,6 C 12,8 C 6,1 C 75 % 1037,1 hPa 0,0 l/m 2 min 0 min 420 W/m 6,4 km/h (2 Bft) 95,74 %
05.02.2020 13:58 8,6 C 12,8 C 6,7 C 75 % 1037,1 hPa 0,0 l/m 2 min 0 min 400 W/m 6,4 km/h (2 Bft) 95,74 %
05.02.2020 14:00 8,7 C 13,9 C 6,7 C 75 % 1037,1 hPa 0,0 l/m 2 min 0 min 416 W/m 3,2 km/h (1 Bft) 97,87 %
05.02.2020 14:02 8,7 C 13,9 C 6,7 C 76 % 1037,1 hPa 0,0 l/m 2 min 0 min 434 W/m 9,7 km/h (2 Bft) 97,83 %
05.02.2020 14:04 8,7 C 13,3 C 6,7 C 75 % 1037,1 hPa 0,0 l/m 2 min 0 min 440 W/m 9,7 km/h (2 Bft) 97,96 %
05.02.2020 14:06 8,7 C 13,9 C 6,7 C 75 % 1037,1 hPa 0,0 l/m 2 min 0 min 436 W/m 0,0 km/h (0 Bft) 100,00 %
05.02.2020 14:08 8,7 C 14,4 C 6,7 C 74 % 1037,1 hPa 0,0 l/m 2 min 0 min 424 W/m 0,0 km/h (0 Bft) 95,74 %
05.02.2020 14:10 8,7 C 15,0 C 6,7 C 76 % 1037,0 hPa 0,0 l/m 2 min 0 min 413 W/m 9,7 km/h (2 Bft) 100,00 %
05.02.2020 14:12 8,8 C 15,6 C 6,7 C 76 % 1037,0 hPa 0,0 l/m 2 min 0 min 414 W/m 6,4 km/h (2 Bft) 95,74 %
05.02.2020 14:14 8,8 C 15,0 C 6,7 C 76 % 1037,0 hPa 0,0 l/m 2 min 0 min 406 W/m 0,0 km/h (0 Bft) 97,87 %
05.02.2020 14:16 8,8 C 13,9 C 6,7 C 75 % 1036,9 hPa 0,0 l/m 2 min 0 min 409 W/m 0,0 km/h (0 Bft) 95,65 %
05.02.2020 14:18 8,8 C 15,0 C 6,7 C 75 % 1036,9 hPa 0,0 l/m 2 min 0 min 406 W/m 0,0 km/h (0 Bft) 97,87 %
05.02.2020 14:20 8,8 C 15,6 C 6,7 C 76 % 1036,9 hPa 0,0 l/m 2 min 0 min 398 W/m 0,0 km/h (0 Bft) 97,87 %
05.02.2020 14:22 8,9 C 15,6 C 6,7 C 76 % 1036,9 hPa 0,0 l/m 2 min 0 min 399 W/m 6,4 km/h (2 Bft) 97,87 %
05.02.2020 14:24 8,9 C 15,6 C 6,7 C 77 % 1036,9 hPa 0,0 l/m 2 min 0 min 402 W/m 9,7 km/h (2 Bft) 97,87 %
05.02.2020 14:26 9,0 C 16,1 C 6,7 C 77 % 1036,9 hPa 0,0 l/m 2 min 0 min 402 W/m 6,4 km/h (2 Bft) 97,87 %
05.02.2020 14:28 9,1 C 15,6 C 6,7 C 77 % 1036,8 hPa 0,0 l/m 2 min 0 min 394 W/m 0,0 km/h (0 Bft) 97,83 %
05.02.2020 14:30 9,1 C 16,1 C 6,7 C 76 % 1036,8 hPa 0,0 l/m 2 min 0 min 378 W/m 9,7 km/h (2 Bft) 95,74 %
05.02.2020 14:32 9,1 C 15,6 C 6,7 C 76 % 1036,8 hPa 0,0 l/m 2 min 0 min 365 W/m 6,4 km/h (2 Bft) 93,62 %
05.02.2020 14:34 9,1 C 15,6 C 6,7 C 75 % 1036,8 hPa 0,0 l/m 2 min 0 min 360 W/m 6,4 km/h (2 Bft) 97,87 %
05.02.2020 14:36 9,1 C 15,0 C 6,7 C 75 % 1036,8 hPa 0,0 l/m 2 min 0 min 355 W/m 6,4 km/h (2 Bft) 97,87 %
05.02.2020 14:38 9,2 C 14,4 C 6,7 C 75 % 1036,8 hPa 0,0 l/m 2 min 0 min 334 W/m 6,4 km/h (2 Bft) 97,87 %
05.02.2020 14:40 9,1 C 13,9 C 6,7 C 74 % 1036,8 hPa 0,0 l/m 2 min 0 min 329 W/m 9,7 km/h (2 Bft) 97,83 %
05.02.2020 14:42 9,1 C 13,9 C 6,1 C 74 % 1036,7 hPa 0,0 l/m 2 min 0 min 328 W/m 3,2 km/h (1 Bft) 100,00 %
05.02.2020 14:44 9,1 C 13,9 C 6,1 C 74 % 1036,8 hPa 0,0 l/m 2 min 0 min 324 W/m 0,0 km/h (0 Bft) 100,00 %
05.02.2020 14:46 9,1 C 13,3 C 6,1 C 73 % 1036,7 hPa 0,0 l/m 2 min 0 min 322 W/m 0,0 km/h (0 Bft) 97,87 %
05.02.2020 14:48 9,0 C 12,8 C 6,1 C 73 % 1036,6 hPa 0,0 l/m 2 min 0 min 321 W/m 0,0 km/h (0 Bft) 100,00 %
05.02.2020 14:50 9,0 C 13,3 C 6,1 C 73 % 1036,6 hPa 0,0 l/m 2 min 0 min 320 W/m 0,0 km/h (0 Bft) 100,00 %
05.02.2020 14:52 9,0 C 13,3 C 6,1 C 73 % 1036,6 hPa 0,0 l/m 2 min 0 min 315 W/m 0,0 km/h (0 Bft) 100,00 %
05.02.2020 14:54 8,9 C 13,3 C 6,1 C 74 % 1036,6 hPa 0,0 l/m 2 min 0 min 311 W/m 0,0 km/h (0 Bft) 100,00 %
05.02.2020 14:56 8,9 C 13,3 C 6,1 C 74 % 1036,6 hPa 0,0 l/m 2 min 0 min 308 W/m 0,0 km/h (0 Bft) 97,87 %
05.02.2020 14:58 8,9 C 13,3 C 6,1 C 75 % 1036,6 hPa 0,0 l/m 2 min 0 min 305 W/m 12,9 km/h (3 Bft) 100,00 %
05.02.2020 15:00 8,9 C 13,9 C 6,1 C 75 % 1036,7 hPa 0,0 l/m 2 min 0 min 306 W/m 9,7 km/h (2 Bft) 100,00 %
05.02.2020 15:02 8,9 C 12,8 C 6,1 C 75 % 1036,7 hPa 0,0 l/m 2 min 0 min 302 W/m 6,4 km/h (2 Bft) 100,00 %
05.02.2020 15:04 8,9 C 12,8 C 6,1 C 74 % 1036,7 hPa 0,0 l/m 2 min 0 min 299 W/m 6,4 km/h (2 Bft) 100,00 %
05.02.2020 15:06 8,8 C 12,8 C 6,1 C 74 % 1036,7 hPa 0,0 l/m 2 min 0 min 297 W/m 3,2 km/h (1 Bft) 100,00 %
05.02.2020 15:08 8,8 C 13,3 C 6,1 C 74 % 1036,6 hPa 0,0 l/m 2 min 0 min 291 W/m 6,4 km/h (2 Bft) 100,00 %
05.02.2020 15:10 8,8 C 12,8 C 5,6 C 74 % 1036,5 hPa 0,0 l/m 2 min 0 min 285 W/m 6,4 km/h (2 Bft) 97,87 %
05.02.2020 15:12 8,8 C 12,2 C 5,6 C 74 % 1036,5 hPa 0,0 l/m 2 min 0 min 278 W/m 0,0 km/h (0 Bft) 100,00 %
05.02.2020 15:14 8,7 C 11,7 C 6,1 C 74 % 1036,5 hPa 0,0 l/m 2 min 0 min 273 W/m 12,9 km/h (3 Bft) 100,00 %
05.02.2020 15:16 8,7 C 11,7 C 6,1 C 74 % 1036,5 hPa 0,0 l/m 2 min 0 min 270 W/m 6,4 km/h (2 Bft) 97,87 %
05.02.2020 15:18 8,6 C 11,7 C 5,6 C 74 % 1036,5 hPa 0,0 l/m 2 min 0 min 266 W/m 6,4 km/h (2 Bft) 97,87 %
05.02.2020 15:20 8,6 C 11,7 C 5,6 C 74 % 1036,4 hPa 0,0 l/m 2 min 0 min 264 W/m 6,4 km/h (2 Bft) 100,00 %
05.02.2020 15:22 8,6 C 11,1 C 5,6 C 74 % 1036,4 hPa 0,0 l/m 2 min 0 min 261 W/m 9,7 km/h (2 Bft) 97,87 %
05.02.2020 15:24 8,5 C 11,7 C 5,6 C 74 % 1036,4 hPa 0,0 l/m 2 min 0 min 257 W/m 9,7 km/h (2 Bft) 97,87 %
05.02.2020 15:26 8,4 C 11,1 C 5,6 C 74 % 1036,3 hPa 0,0 l/m 2 min 0 min 254 W/m 9,7 km/h (2 Bft) 97,83 %
05.02.2020 15:28 8,4 C 11,7 C 5,6 C 74 % 1036,3 hPa 0,0 l/m 2 min 0 min 249 W/m 3,2 km/h (1 Bft) 97,87 %
05.02.2020 15:30 8,3 C 10,6 C 5,0 C 75 % 1036,3 hPa 0,0 l/m 2 min 0 min 245 W/m 3,2 km/h (1 Bft) 100,00 %
05.02.2020 15:32 8,3 C 8,9 C 5,0 C 75 % 1036,3 hPa 0,0 l/m 2 min 0 min 241 W/m 6,4 km/h (2 Bft) 97,87 %
05.02.2020 15:34 8,2 C 7,8 C 5,6 C 75 % 1036,2 hPa 0,0 l/m 2 min 0 min 237 W/m 6,4 km/h (2 Bft) 97,87 %
05.02.2020 15:36 8,1 C 7,2 C 5,0 C 75 % 1036,2 hPa 0,0 l/m 2 min 0 min 231 W/m 0,0 km/h (0 Bft) 95,74 %
05.02.2020 15:38 8,1 C 7,2 C 5,6 C 75 % 1036,2 hPa 0,0 l/m 2 min 0 min 227 W/m 3,2 km/h (1 Bft) 95,65 %
05.02.2020 15:40 8,0 C 6,7 C 5,6 C 75 % 1036,2 hPa 0,0 l/m 2 min 0 min 221 W/m 6,4 km/h (2 Bft) 93,62 %
05.02.2020 15:42 7,9 C 6,7 C 5,6 C 75 % 1036,2 hPa 0,0 l/m 2 min 0 min 215 W/m 6,4 km/h (2 Bft) 97,87 %
05.02.2020 15:44 7,8 C 6,7 C 5,6 C 75 % 1036,2 hPa 0,0 l/m 2 min 0 min 210 W/m 3,2 km/h (1 Bft) 95,74 %
05.02.2020 15:46 7,8 C 6,7 C 5,0 C 75 % 1036,2 hPa 0,0 l/m 2 min 0 min 200 W/m 0,0 km/h (0 Bft) 95,74 %
05.02.2020 15:48 7,7 C 6,7 C 5,6 C 76 % 1036,2 hPa 0,0 l/m 2 min 0 min 177 W/m 6,4 km/h (2 Bft) 95,74 %
05.02.2020 15:50 7,6 C 6,7 C 5,6 C 75 % 1036,2 hPa 0,0 l/m 2 min 0 min 146 W/m 3,2 km/h (1 Bft) 97,83 %
05.02.2020 15:52 7,6 C 6,1 C 5,6 C 75 % 1036,2 hPa 0,0 l/m 2 min 0 min 110 W/m 3,2 km/h (1 Bft) 95,74 %
05.02.2020 15:54 7,5 C 6,1 C 5,6 C 75 % 1036,2 hPa 0,0 l/m 0 min 0 min 77 W/m 6,4 km/h (2 Bft) 91,49 %
05.02.2020 15:56 7,4 C 6,1 C 5,0 C 75 % 1036,3 hPa 0,0 l/m 0 min 0 min 57 W/m 6,4 km/h (2 Bft) 93,62 %
05.02.2020 15:58 7,3 C 6,1 C 5,0 C 75 % 1036,3 hPa 0,0 l/m 0 min 0 min 47 W/m 12,9 km/h (3 Bft) 93,62 %
05.02.2020 16:00 7,3 C 6,1 C 5,0 C 76 % 1036,4 hPa 0,0 l/m 0 min 0 min 46 W/m 3,2 km/h (1 Bft) 95,74 %
05.02.2020 16:02 7,3 C 6,1 C 5,0 C 76 % 1036,4 hPa 0,0 l/m 0 min 0 min 46 W/m 0,0 km/h (0 Bft) 91,30 %
05.02.2020 16:04 7,2 C 6,1 C 5,0 C 77 % 1036,5 hPa 0,0 l/m 0 min 0 min 44 W/m 6,4 km/h (2 Bft) 93,62 %
05.02.2020 16:06 7,1 C 6,1 C 5,0 C 76 % 1036,5 hPa 0,0 l/m 0 min 0 min 44 W/m 6,4 km/h (2 Bft) 94,12 %
05.02.2020 16:08 7,1 C 6,1 C 5,0 C 77 % 1036,6 hPa 0,0 l/m 0 min 0 min 44 W/m 0,0 km/h (0 Bft) 91,49 %
05.02.2020 16:10 7,1 C 6,1 C 5,0 C 77 % 1036,5 hPa 0,0 l/m 0 min 0 min 44 W/m 6,4 km/h (2 Bft) 95,65 %
05.02.2020 16:12 7,0 C 6,1 C 5,0 C 78 % 1036,5 hPa 0,0 l/m 0 min 0 min 42 W/m 6,4 km/h (2 Bft) 91,49 %
05.02.2020 16:14 6,9 C 6,1 C 5,0 C 79 % 1036,6 hPa 0,0 l/m 0 min 0 min 41 W/m 6,4 km/h (2 Bft) 95,74 %
05.02.2020 16:16 6,9 C 6,1 C 4,4 C 79 % 1036,6 hPa 0,0 l/m 0 min 0 min 40 W/m 3,2 km/h (1 Bft) 95,74 %
05.02.2020 16:18 6,9 C 6,1 C 4,4 C 79 % 1036,6 hPa 0,0 l/m 0 min 0 min 40 W/m 3,2 km/h (1 Bft) 95,74 %
05.02.2020 16:20 6,8 C 5,6 C 4,4 C 79 % 1036,6 hPa 0,0 l/m 0 min 0 min 39 W/m 6,4 km/h (2 Bft) 97,87 %
05.02.2020 16:22 6,8 C 5,6 C 4,4 C 79 % 1036,6 hPa 0,0 l/m 0 min 0 min 38 W/m 3,2 km/h (1 Bft) 97,83 %
05.02.2020 16:24 6,8 C 5,6 C 4,4 C 80 % 1036,6 hPa 0,0 l/m 0 min 0 min 37 W/m 6,4 km/h (2 Bft) 97,87 %
05.02.2020 16:26 6,7 C 5,6 C 4,4 C 80 % 1036,6 hPa 0,0 l/m 0 min 0 min 35 W/m 9,7 km/h (2 Bft) 97,87 %
05.02.2020 16:28 6,7 C 5,6 C 4,4 C 80 % 1036,5 hPa 0,0 l/m 0 min 0 min 35 W/m 12,9 km/h (3 Bft) 93,62 %
05.02.2020 16:30 6,6 C 5,6 C 4,4 C 80 % 1036,5 hPa 0,0 l/m 0 min 0 min 32 W/m 9,7 km/h (2 Bft) 97,87 %
05.02.2020 16:32 6,6 C 5,6 C 4,4 C 80 % 1036,5 hPa 0,0 l/m 0 min 0 min 32 W/m 6,4 km/h (2 Bft) 97,83 %
05.02.2020 16:34 6,5 C 5,6 C 4,4 C 80 % 1036,5 hPa 0,0 l/m 0 min 0 min 30 W/m 3,2 km/h (1 Bft) 97,87 %
05.02.2020 16:36 6,5 C 5,6 C 4,4 C 80 % 1036,5 hPa 0,0 l/m 0 min 0 min 32 W/m 9,7 km/h (2 Bft) 95,74 %
05.02.2020 16:38 6,5 C 5,6 C 4,4 C 80 % 1036,5 hPa 0,0 l/m 0 min 0 min 32 W/m 6,4 km/h (2 Bft) 97,87 %
05.02.2020 16:40 6,4 C 5,0 C 4,4 C 81 % 1036,6 hPa 0,0 l/m 0 min 0 min 30 W/m 0,0 km/h (0 Bft) 97,87 %
05.02.2020 16:42 6,4 C 5,6 C 4,4 C 81 % 1036,5 hPa 0,0 l/m 0 min 0 min 31 W/m 6,4 km/h (2 Bft) 97,87 %
05.02.2020 16:44 6,3 C 5,6 C 4,4 C 81 % 1036,5 hPa 0,0 l/m 0 min 0 min 30 W/m 6,4 km/h (2 Bft) 97,87 %
05.02.2020 16:46 6,3 C 5,0 C 4,4 C 81 % 1036,4 hPa 0,0 l/m 0 min 0 min 28 W/m 6,4 km/h (2 Bft) 95,65 %
05.02.2020 16:48 6,3 C 5,0 C 4,4 C 81 % 1036,4 hPa 0,0 l/m 0 min 0 min 26 W/m 12,9 km/h (3 Bft) 97,87 %
05.02.2020 16:50 6,2 C 5,6 C 4,4 C 81 % 1036,4 hPa 0,0 l/m 0 min 0 min 26 W/m 6,4 km/h (2 Bft) 97,87 %
05.02.2020 16:52 6,2 C 5,0 C 4,4 C 81 % 1036,4 hPa 0,0 l/m 0 min 0 min 25 W/m 3,2 km/h (1 Bft) 95,74 %
05.02.2020 16:54 6,2 C 5,0 C 4,4 C 81 % 1036,5 hPa 0,0 l/m 0 min 0 min 24 W/m 6,4 km/h (2 Bft) 100,00 %
05.02.2020 16:56 6,1 C 5,0 C 4,4 C 81 % 1036,5 hPa 0,0 l/m 0 min 0 min 21 W/m 3,2 km/h (1 Bft) 95,65 %
05.02.2020 16:58 6,1 C 5,0 C 3,9 C 81 % 1036,5 hPa 0,0 l/m 0 min 0 min 21 W/m 3,2 km/h (1 Bft) 100,00 %
05.02.2020 17:00 6,1 C 5,0 C 3,9 C 81 % 1036,5 hPa 0,0 l/m 0 min 0 min 19 W/m 0,0 km/h (0 Bft) 100,00 %
05.02.2020 17:02 6,0 C 5,0 C 3,9 C 82 % 1036,5 hPa 0,0 l/m 0 min 0 min 18 W/m 0,0 km/h (0 Bft) 95,74 %
05.02.2020 17:04 6,0 C 4,4 C 3,9 C 82 % 1036,5 hPa 0,0 l/m 0 min 0 min 17 W/m 3,2 km/h (1 Bft) 100,00 %
05.02.2020 17:06 5,9 C 4,4 C 3,9 C 82 % 1036,5 hPa 0,0 l/m 0 min 0 min 15 W/m 9,7 km/h (2 Bft) 95,74 %
05.02.2020 17:08 5,9 C 4,4 C 3,9 C 82 % 1036,5 hPa 0,0 l/m 0 min 0 min 13 W/m 3,2 km/h (1 Bft) 100,00 %
05.02.2020 17:10 5,8 C 4,4 C 3,9 C 82 % 1036,5 hPa 0,0 l/m 0 min 0 min 11 W/m 3,2 km/h (1 Bft) 100,00 %
05.02.2020 17:12 5,8 C 4,4 C 3,3 C 82 % 1036,5 hPa 0,0 l/m 0 min 0 min 11 W/m 3,2 km/h (1 Bft) 100,00 %
05.02.2020 17:14 5,8 C 4,4 C 3,3 C 82 % 1036,6 hPa 0,0 l/m 0 min 0 min 10 W/m 0,0 km/h (0 Bft) 97,87 %
05.02.2020 17:16 5,7 C 3,9 C 3,3 C 82 % 1036,5 hPa 0,0 l/m 0 min 0 min 9 W/m 3,2 km/h (1 Bft) 97,87 %
05.02.2020 17:18 5,7 C 3,9 C 3,3 C 83 % 1036,5 hPa 0,0 l/m 0 min 0 min 7 W/m 0,0 km/h (0 Bft) 55,56 %
05.02.2020 17:20 5,6 C 3,9 C 3,3 C 83 % 1036,5 hPa 0,0 l/m 0 min 0 min 7 W/m 0,0 km/h (0 Bft) 97,87 %
05.02.2020 17:22 5,6 C 3,9 C 3,3 C 83 % 1036,6 hPa 0,0 l/m 0 min 0 min 6 W/m 0,0 km/h (0 Bft) 97,87 %
05.02.2020 17:24 5,5 C 3,9 C 2,8 C 83 % 1036,5 hPa 0,0 l/m 0 min 0 min 5 W/m 0,0 km/h (0 Bft) 100,00 %
05.02.2020 17:26 5,4 C 3,9 C 2,8 C 83 % 1036,5 hPa 0,0 l/m 0 min 0 min 5 W/m 0,0 km/h (0 Bft) 97,87 %
05.02.2020 17:28 5,4 C 3,9 C 2,8 C 83 % 1036,5 hPa 0,0 l/m 0 min 0 min 2 W/m 0,0 km/h (0 Bft) 97,87 %
05.02.2020 17:30 5,3 C 3,9 C 2,8 C 83 % 1036,5 hPa 0,0 l/m 0 min 0 min 0 W/m 0,0 km/h (0 Bft) 97,83 %
05.02.2020 17:32 5,3 C 3,9 C 2,8 C 83 % 1036,4 hPa 0,0 l/m 0 min 0 min 0 W/m 0,0 km/h (0 Bft) 97,87 %
05.02.2020 17:34 5,2 C 3,9 C 2,8 C 83 % 1036,4 hPa 0,0 l/m 0 min 0 min 0 W/m 3,2 km/h (1 Bft) 97,87 %
05.02.2020 17:36 5,2 C 3,9 C 2,8 C 83 % 1036,4 hPa 0,0 l/m 0 min 0 min 0 W/m 3,2 km/h (1 Bft) 97,87 %
05.02.2020 17:38 5,2 C 3,9 C 2,8 C 83 % 1036,5 hPa 0,0 l/m 0 min 0 min 0 W/m 3,2 km/h (1 Bft) 97,87 %
05.02.2020 17:40 5,1 C 3,9 C 2,8 C 84 % 1036,5 hPa 0,0 l/m 0 min 0 min 0 W/m 3,2 km/h (1 Bft) 97,87 %
05.02.2020 17:42 5,1 C 3,9 C 2,8 C 84 % 1036,5 hPa 0,0 l/m 0 min 0 min 0 W/m 0,0 km/h (0 Bft) 97,83 %
05.02.2020 17:44 5,1 C 3,9 C 2,8 C 84 % 1036,5 hPa 0,0 l/m 0 min 0 min 0 W/m 0,0 km/h (0 Bft) 95,74 %
05.02.2020 17:46 5,0 C 3,9 C 2,8 C 84 % 1036,5 hPa 0,0 l/m 0 min 0 min 0 W/m 3,2 km/h (1 Bft) 97,87 %
05.02.2020 17:48 5,0 C 3,9 C 2,8 C 84 % 1036,5 hPa 0,0 l/m 0 min 0 min 0 W/m 0,0 km/h (0 Bft) 95,74 %
05.02.2020 17:50 4,9 C 3,9 C 2,8 C 84 % 1036,6 hPa 0,0 l/m 0 min 0 min 0 W/m 0,0 km/h (0 Bft) 97,87 %
05.02.2020 17:52 4,9 C 3,9 C 2,8 C 85 % 1036,6 hPa 0,0 l/m 0 min 0 min 0 W/m 0,0 km/h (0 Bft) 95,74 %
05.02.2020 17:54 4,9 C 3,9 C 2,8 C 85 % 1036,6 hPa 0,0 l/m 0 min 0 min 0 W/m 0,0 km/h (0 Bft) 97,83 %
05.02.2020 17:56 4,9 C 3,9 C 2,8 C 85 % 1036,6 hPa 0,0 l/m 0 min 0 min 0 W/m 0,0 km/h (0 Bft) 97,87 %
05.02.2020 17:58 4,9 C 3,9 C 3,3 C 85 % 1036,5 hPa 0,0 l/m 0 min 0 min 0 W/m 0,0 km/h (0 Bft) 100,00 %
05.02.2020 18:00 4,8 C 4,4 C 3,3 C 85 % 1036,6 hPa 0,0 l/m 0 min 0 min 0 W/m 0,0 km/h (0 Bft) 100,00 %
05.02.2020 18:02 4,8 C 4,4 C 3,3 C 86 % 1036,6 hPa 0,0 l/m 0 min 0 min 0 W/m 0,0 km/h (0 Bft) 100,00 %
05.02.2020 18:04 4,8 C 4,4 C 3,3 C 86 % 1036,6 hPa 0,0 l/m 0 min 0 min 0 W/m 0,0 km/h (0 Bft) 100,00 %
05.02.2020 18:06 4,8 C 4,4 C 3,3 C 86 % 1036,6 hPa 0,0 l/m 0 min 0 min 0 W/m 0,0 km/h (0 Bft) 97,83 %
05.02.2020 18:08 4,8 C 4,4 C 3,3 C 86 % 1036,6 hPa 0,0 l/m 0 min 0 min 0 W/m 0,0 km/h (0 Bft) 100,00 %
05.02.2020 18:10 4,8 C 4,4 C 3,3 C 86 % 1036,6 hPa 0,0 l/m 0 min 0 min 0 W/m 0,0 km/h (0 Bft) 100,00 %
05.02.2020 18:12 4,8 C 4,4 C 3,3 C 86 % 1036,6 hPa 0,0 l/m 0 min 0 min 0 W/m 0,0 km/h (0 Bft) 97,87 %
05.02.2020 18:14 4,8 C 4,4 C 3,3 C 86 % 1036,6 hPa 0,0 l/m 0 min 0 min 0 W/m 0,0 km/h (0 Bft) 100,00 %
05.02.2020 18:16 4,8 C 4,4 C 3,3 C 86 % 1036,6 hPa 0,0 l/m 0 min 0 min 0 W/m 0,0 km/h (0 Bft) 100,00 %
05.02.2020 18:18 4,8 C 4,4 C 3,3 C 86 % 1036,5 hPa 0,0 l/m 0 min 0 min 0 W/m 0,0 km/h (0 Bft) 100,00 %
05.02.2020 18:20 4,8 C 4,4 C 3,3 C 86 % 1036,6 hPa 0,0 l/m 0 min 0 min 0 W/m 0,0 km/h (0 Bft) 47,37 %
05.02.2020 18:22 4,8 C 4,4 C 3,3 C 86 % 1036,6 hPa 0,0 l/m 0 min 0 min 0 W/m 0,0 km/h (0 Bft) 100,00 %
05.02.2020 18:24 4,8 C 4,4 C 3,3 C 86 % 1036,6 hPa 0,0 l/m 0 min 0 min 0 W/m 6,4 km/h (2 Bft) 100,00 %
05.02.2020 18:26 4,8 C 4,4 C 3,9 C 86 % 1036,7 hPa 0,0 l/m 0 min 0 min 0 W/m 3,2 km/h (1 Bft) 100,00 %
05.02.2020 18:28 4,9 C 4,4 C 3,9 C 86 % 1036,6 hPa 0,0 l/m 0 min 0 min 0 W/m 6,4 km/h (2 Bft) 100,00 %
05.02.2020 18:30 4,9 C 4,4 C 3,9 C 86 % 1036,7 hPa 0,0 l/m 0 min 0 min 0 W/m 9,7 km/h (2 Bft) 97,87 %
05.02.2020 18:32 4,9 C 4,4 C 3,9 C 86 % 1036,7 hPa 0,0 l/m 0 min 0 min 0 W/m 6,4 km/h (2 Bft) 95,74 %
05.02.2020 18:34 4,9 C 4,4 C 3,9 C 86 % 1036,8 hPa 0,0 l/m 0 min 0 min 0 W/m 9,7 km/h (2 Bft) 97,87 %
05.02.2020 18:36 4,9 C 4,4 C 3,9 C 86 % 1036,8 hPa 0,0 l/m 0 min 0 min 0 W/m 3,2 km/h (1 Bft) 97,87 %
05.02.2020 18:38 4,9 C 4,4 C 3,9 C 86 % 1036,8 hPa 0,0 l/m 0 min 0 min 0 W/m 9,7 km/h (2 Bft) 97,87 %
05.02.2020 18:40 4,9 C 4,4 C 3,9 C 86 % 1036,9 hPa 0,0 l/m 0 min 0 min 0 W/m 6,4 km/h (2 Bft) 97,83 %
05.02.2020 18:42 5,0 C 4,4 C 3,9 C 86 % 1036,8 hPa 0,0 l/m 0 min 0 min 0 W/m 6,4 km/h (2 Bft) 97,87 %
05.02.2020 18:44 5,0 C 4,4 C 3,9 C 86 % 1036,9 hPa 0,0 l/m 0 min 0 min 0 W/m 3,2 km/h (1 Bft) 97,87 %
05.02.2020 18:46 5,0 C 4,4 C 3,9 C 86 % 1036,8 hPa 0,0 l/m 0 min 0 min 0 W/m 6,4 km/h (2 Bft) 97,87 %
05.02.2020 18:48 5,0 C 4,4 C 3,9 C 86 % 1036,8 hPa 0,0 l/m 0 min 0 min 0 W/m 3,2 km/h (1 Bft) 95,74 %
05.02.2020 18:50 5,0 C 4,4 C 3,9 C 86 % 1036,8 hPa 0,0 l/m 0 min 0 min 0 W/m 0,0 km/h (0 Bft) 97,87 %
05.02.2020 18:52 5,1 C 5,0 C 3,9 C 86 % 1036,8 hPa 0,0 l/m 0 min 0 min 0 W/m 0,0 km/h (0 Bft) 97,83 %
05.02.2020 18:54 5,1 C 5,0 C 3,9 C 86 % 1036,8 hPa 0,0 l/m 0 min 0 min 0 W/m 0,0 km/h (0 Bft) 95,74 %
05.02.2020 18:56 5,1 C 5,0 C 3,9 C 86 % 1036,8 hPa 0,0 l/m 0 min 0 min 0 W/m 0,0 km/h (0 Bft) 97,87 %
05.02.2020 18:58 5,1 C 5,0 C 3,9 C 86 % 1036,8 hPa 0,0 l/m 0 min 0 min 0 W/m 0,0 km/h (0 Bft) 97,87 %
05.02.2020 19:00 5,1 C 5,0 C 3,9 C 86 % 1036,8 hPa 0,0 l/m 0 min 0 min 0 W/m 0,0 km/h (0 Bft) 97,87 %
05.02.2020 19:02 5,1 C 5,0 C 3,9 C 86 % 1036,7 hPa 0,0 l/m 0 min 0 min 0 W/m 0,0 km/h (0 Bft) 97,87 %
05.02.2020 19:04 5,1 C 5,0 C 3,9 C 86 % 1036,7 hPa 0,0 l/m 0 min 0 min 0 W/m 0,0 km/h (0 Bft) 97,83 %
05.02.2020 19:06 5,1 C 5,0 C 3,9 C 86 % 1036,7 hPa 0,0 l/m 0 min 0 min 0 W/m 0,0 km/h (0 Bft) 95,74 %
05.02.2020 19:08 5,2 C 5,0 C 3,9 C 86 % 1036,7 hPa 0,0 l/m 0 min 0 min 0 W/m 0,0 km/h (0 Bft) 91,49 %
05.02.2020 19:10 5,2 C 5,0 C 3,9 C 86 % 1036,7 hPa 0,0 l/m 0 min 0 min 0 W/m 6,4 km/h (2 Bft) 97,87 %
05.02.2020 19:12 5,2 C 5,0 C 3,9 C 86 % 1036,7 hPa 0,0 l/m 0 min 0 min 0 W/m 6,4 km/h (2 Bft) 95,74 %
05.02.2020 19:14 5,2 C 4,4 C 3,9 C 86 % 1036,7 hPa 0,0 l/m 0 min 0 min 0 W/m 0,0 km/h (0 Bft) 95,74 %
05.02.2020 19:16 5,2 C 4,4 C 3,9 C 86 % 1036,7 hPa 0,0 l/m 0 min 0 min 0 W/m 0,0 km/h (0 Bft) 97,83 %
05.02.2020 19:18 5,2 C 4,4 C 3,9 C 86 % 1036,7 hPa 0,0 l/m 0 min 0 min 0 W/m 0,0 km/h (0 Bft) 100,00 %
05.02.2020 19:20 5,2 C 4,4 C 3,9 C 86 % 1036,7 hPa 0,0 l/m 0 min 0 min 0 W/m 6,4 km/h (2 Bft) 95,74 %
05.02.2020 19:22 5,2 C 4,4 C 3,9 C 86 % 1036,8 hPa 0,0 l/m 0 min 0 min 0 W/m 6,4 km/h (2 Bft) 97,87 %
05.02.2020 19:24 5,2 C 4,4 C 3,9 C 86 % 1036,8 hPa 0,0 l/m 0 min 0 min 0 W/m 0,0 km/h (0 Bft) 97,87 %
05.02.2020 19:26 5,2 C 4,4 C 3,9 C 86 % 1036,8 hPa 0,0 l/m 0 min 0 min 0 W/m 0,0 km/h (0 Bft) 97,83 %
05.02.2020 19:28 5,2 C 4,4 C 3,9 C 86 % 1036,7 hPa 0,0 l/m 0 min 0 min 0 W/m 0,0 km/h (0 Bft) 97,87 %
05.02.2020 19:30 5,2 C 4,4 C 3,9 C 86 % 1036,7 hPa 0,0 l/m 0 min 0 min 0 W/m 0,0 km/h (0 Bft) 97,87 %
05.02.2020 19:32 5,2 C 4,4 C 3,9 C 86 % 1036,6 hPa 0,0 l/m 0 min 0 min 0 W/m 0,0 km/h (0 Bft) 97,87 %
05.02.2020 19:34 5,2 C 4,4 C 3,9 C 86 % 1036,7 hPa 0,0 l/m 0 min 0 min 0 W/m 0,0 km/h (0 Bft) 97,87 %
05.02.2020 19:36 5,2 C 4,4 C 3,9 C 86 % 1036,7 hPa 0,0 l/m 0 min 0 min 0 W/m 0,0 km/h (0 Bft) 95,74 %
05.02.2020 19:38 5,2 C 4,4 C 3,9 C 86 % 1036,6 hPa 0,0 l/m 0 min 0 min 0 W/m 0,0 km/h (0 Bft) 95,65 %
05.02.2020 19:40 5,2 C 4,4 C 3,9 C 86 % 1036,6 hPa 0,0 l/m 0 min 0 min 0 W/m 0,0 km/h (0 Bft) 97,87 %
05.02.2020 19:42 5,2 C 4,4 C 3,9 C 86 % 1036,5 hPa 0,0 l/m 0 min 0 min 0 W/m 0,0 km/h (0 Bft) 97,87 %
05.02.2020 19:44 5,2 C 4,4 C 3,9 C 86 % 1036,5 hPa 0,0 l/m 0 min 0 min 0 W/m 6,4 km/h (2 Bft) 95,74 %
05.02.2020 19:46 5,2 C 4,4 C 3,3 C 86 % 1036,5 hPa 0,0 l/m 0 min 0 min 0 W/m 3,2 km/h (1 Bft) 93,62 %
05.02.2020 19:48 5,2 C 4,4 C 3,3 C 86 % 1036,5 hPa 0,0 l/m 0 min 0 min 0 W/m 0,0 km/h (0 Bft) 95,74 %
05.02.2020 19:50 5,2 C 4,4 C 3,3 C 86 % 1036,4 hPa 0,0 l/m 0 min 0 min 0 W/m 6,4 km/h (2 Bft) 95,65 %
05.02.2020 19:52 5,2 C 4,4 C 3,3 C 86 % 1036,4 hPa 0,0 l/m 0 min 0 min 0 W/m 6,4 km/h (2 Bft) 95,74 %
05.02.2020 19:54 5,2 C 4,4 C 3,3 C 86 % 1036,4 hPa 0,0 l/m 0 min 0 min 0 W/m 6,4 km/h (2 Bft) 95,74 %
05.02.2020 19:56 5,2 C 4,4 C 3,3 C 86 % 1036,5 hPa 0,0 l/m 0 min 0 min 0 W/m 0,0 km/h (0 Bft) 95,74 %
05.02.2020 19:58 5,2 C 3,9 C 3,3 C 86 % 1036,5 hPa 0,0 l/m 0 min 0 min 0 W/m 3,2 km/h (1 Bft) 95,74 %
05.02.2020 20:00 5,2 C 3,9 C 2,8 C 86 % 1036,5 hPa 0,0 l/m 0 min 0 min 0 W/m 6,4 km/h (2 Bft) 95,74 %
05.02.2020 20:02 5,2 C 3,9 C 2,8 C 86 % 1036,4 hPa 0,0 l/m 0 min 0 min 0 W/m 0,0 km/h (0 Bft) 95,65 %
05.02.2020 20:04 5,1 C 3,9 C 2,8 C 86 % 1036,4 hPa 0,0 l/m 0 min 0 min 0 W/m 3,2 km/h (1 Bft) 97,87 %
05.02.2020 20:06 5,1 C 3,9 C 2,8 C 87 % 1036,4 hPa 0,0 l/m 0 min 0 min 0 W/m 0,0 km/h (0 Bft) 97,87 %
05.02.2020 20:08 5,1 C 3,9 C 2,8 C 87 % 1036,4 hPa 0,0 l/m 0 min 0 min 0 W/m 0,0 km/h (0 Bft) 97,87 %
05.02.2020 20:10 5,1 C 3,9 C 2,8 C 87 % 1036,4 hPa 0,0 l/m 0 min 0 min 0 W/m 0,0 km/h (0 Bft) 97,87 %
05.02.2020 20:12 5,1 C 3,9 C 2,8 C 87 % 1036,4 hPa 0,0 l/m 0 min 0 min 0 W/m 0,0 km/h (0 Bft) 97,87 %
05.02.2020 20:14 5,1 C 3,9 C 2,8 C 87 % 1036,4 hPa 0,0 l/m 0 min 0 min 0 W/m 0,0 km/h (0 Bft) 97,83 %
05.02.2020 20:16 5,1 C 3,9 C 2,8 C 87 % 1036,3 hPa 0,0 l/m 0 min 0 min 0 W/m 0,0 km/h (0 Bft) 97,87 %
05.02.2020 20:18 5,0 C 3,9 C 2,8 C 87 % 1036,3 hPa 0,0 l/m 0 min 0 min 0 W/m 9,7 km/h (2 Bft) 97,87 %
05.02.2020 20:20 4,9 C 3,9 C 3,3 C 87 % 1036,3 hPa 0,0 l/m 0 min 0 min 0 W/m 6,4 km/h (2 Bft) 97,87 %
05.02.2020 20:22 4,9 C 3,9 C 3,3 C 87 % 1036,3 hPa 0,0 l/m 0 min 0 min 0 W/m 6,4 km/h (2 Bft) 97,87 %
05.02.2020 20:24 4,9 C 3,9 C 3,3 C 87 % 1036,3 hPa 0,0 l/m 0 min 0 min 0 W/m 3,2 km/h (1 Bft) 97,83 %
05.02.2020 20:26 4,9 C 3,9 C 3,3 C 87 % 1036,3 hPa 0,0 l/m 0 min 0 min 0 W/m 0,0 km/h (0 Bft) 97,87 %
05.02.2020 20:28 4,9 C 3,9 C 3,3 C 87 % 1036,4 hPa 0,0 l/m 0 min 0 min 0 W/m 0,0 km/h (0 Bft) 95,74 %
05.02.2020 20:30 4,8 C 3,9 C 3,3 C 87 % 1036,3 hPa 0,0 l/m 0 min 0 min 0 W/m 0,0 km/h (0 Bft) 97,87 %
05.02.2020 20:32 4,8 C 3,9 C 3,3 C 87 % 1036,4 hPa 0,0 l/m 0 min 0 min 0 W/m 9,7 km/h (2 Bft) 97,87 %
05.02.2020 20:34 4,8 C 3,9 C 3,3 C 87 % 1036,3 hPa 0,0 l/m 0 min 0 min 0 W/m 3,2 km/h (1 Bft) 97,87 %
05.02.2020 20:36 4,8 C 3,9 C 3,3 C 87 % 1036,3 hPa 0,0 l/m 0 min 0 min 0 W/m 0,0 km/h (0 Bft) 97,87 %
05.02.2020 20:38 4,7 C 3,9 C 3,3 C 87 % 1036,2 hPa 0,0 l/m 0 min 0 min 0 W/m 9,7 km/h (2 Bft) 95,65 %
05.02.2020 20:40 4,7 C 3,9 C 3,3 C 87 % 1036,2 hPa 0,0 l/m 0 min 0 min 0 W/m 9,7 km/h (2 Bft) 97,87 %
05.02.2020 20:42 4,7 C 3,9 C 3,3 C 87 % 1036,2 hPa 0,0 l/m 0 min 0 min 0 W/m 6,4 km/h (2 Bft) 95,74 %
05.02.2020 20:44 4,7 C 3,9 C 2,8 C 87 % 1036,2 hPa 0,0 l/m 0 min 0 min 0 W/m 12,9 km/h (3 Bft) 95,74 %
05.02.2020 20:46 4,6 C 3,9 C 2,8 C 87 % 1036,2 hPa 0,0 l/m 0 min 0 min 0 W/m 6,4 km/h (2 Bft) 97,87 %
05.02.2020 20:48 4,6 C 3,3 C 2,8 C 87 % 1036,1 hPa 0,0 l/m 0 min 0 min 0 W/m 12,9 km/h (3 Bft) 100,00 %
05.02.2020 20:50 4,6 C 3,9 C 2,8 C 88 % 1036,1 hPa 0,0 l/m 0 min 0 min 0 W/m 12,9 km/h (3 Bft) 100,00 %
05.02.2020 20:52 4,6 C 3,9 C 2,8 C 88 % 1036,2 hPa 0,0 l/m 0 min 0 min 0 W/m 6,4 km/h (2 Bft) 97,87 %
05.02.2020 20:54 4,6 C 3,9 C 2,8 C 88 % 1036,1 hPa 0,0 l/m 0 min 0 min 0 W/m 6,4 km/h (2 Bft) 100,00 %
05.02.2020 20:56 4,6 C 3,9 C 2,8 C 88 % 1036,1 hPa 0,0 l/m 0 min 0 min 0 W/m 6,4 km/h (2 Bft) 100,00 %
05.02.2020 20:58 4,5 C 3,9 C 2,8 C 88 % 1036,2 hPa 0,0 l/m 0 min 0 min 0 W/m 6,4 km/h (2 Bft) 100,00 %
05.02.2020 21:00 4,5 C 3,9 C 2,8 C 88 % 1036,2 hPa 0,0 l/m 0 min 0 min 0 W/m 3,2 km/h (1 Bft) 100,00 %
05.02.2020 21:02 4,5 C 3,9 C 3,3 C 88 % 1036,2 hPa 0,0 l/m 0 min 0 min 0 W/m 6,4 km/h (2 Bft) 97,87 %
05.02.2020 21:04 4,5 C 3,9 C 3,3 C 88 % 1036,2 hPa 0,0 l/m 0 min 0 min 0 W/m 3,2 km/h (1 Bft) 100,00 %
05.02.2020 21:06 4,5 C 3,9 C 3,3 C 88 % 1036,2 hPa 0,0 l/m 0 min 0 min 0 W/m 6,4 km/h (2 Bft) 97,87 %
05.02.2020 21:08 4,5 C 3,9 C 3,3 C 88 % 1036,1 hPa 0,0 l/m 0 min 0 min 0 W/m 6,4 km/h (2 Bft) 100,00 %
05.02.2020 21:10 4,4 C 3,9 C 3,3 C 88 % 1036,1 hPa 0,0 l/m 0 min 0 min 0 W/m 6,4 km/h (2 Bft) 95,74 %
05.02.2020 21:12 4,4 C 3,9 C 3,3 C 88 % 1036,2 hPa 0,0 l/m 0 min 0 min 0 W/m 6,4 km/h (2 Bft) 100,00 %
05.02.2020 21:14 4,4 C 3,9 C 3,3 C 88 % 1036,1 hPa 0,0 l/m 0 min 0 min 0 W/m 0,0 km/h (0 Bft) 100,00 %
05.02.2020 21:16 4,4 C 3,9 C 3,3 C 88 % 1036,2 hPa 0,0 l/m 0 min 0 min 0 W/m 3,2 km/h (1 Bft) 100,00 %
05.02.2020 21:18 4,4 C 3,9 C 3,3 C 88 % 1036,2 hPa 0,0 l/m 0 min 0 min 0 W/m 0,0 km/h (0 Bft) 97,87 %
05.02.2020 21:20 4,4 C 3,3 C 3,3 C 89 % 1036,2 hPa 0,0 l/m 0 min 0 min 0 W/m 0,0 km/h (0 Bft) 97,87 %
05.02.2020 21:22 4,4 C 3,3 C 2,8 C 89 % 1036,2 hPa 0,0 l/m 0 min 0 min 0 W/m 0,0 km/h (0 Bft) 95,74 %
05.02.2020 21:24 4,4 C 3,3 C 2,8 C 89 % 1036,2 hPa 0,0 l/m 0 min 0 min 0 W/m 0,0 km/h (0 Bft) 95,65 %
05.02.2020 21:26 4,4 C 3,3 C 2,8 C 89 % 1036,3 hPa 0,0 l/m 0 min 0 min 0 W/m 3,2 km/h (1 Bft) 97,87 %
05.02.2020 21:28 4,4 C 3,3 C 2,8 C 89 % 1036,3 hPa 0,0 l/m 0 min 0 min 0 W/m 3,2 km/h (1 Bft) 97,87 %
05.02.2020 21:30 4,3 C 3,3 C 2,8 C 89 % 1036,3 hPa 0,0 l/m 0 min 0 min 0 W/m 0,0 km/h (0 Bft) 95,74 %
05.02.2020 21:32 4,3 C 3,3 C 2,8 C 89 % 1036,3 hPa 0,0 l/m 0 min 0 min 0 W/m 0,0 km/h (0 Bft) 97,87 %
05.02.2020 21:34 4,3 C 3,3 C 2,8 C 89 % 1036,4 hPa 0,0 l/m 0 min 0 min 0 W/m 0,0 km/h (0 Bft) 57,45 %
05.02.2020 21:36 4,3 C 3,3 C 2,8 C 89 % 1036,3 hPa 0,0 l/m 0 min 0 min 0 W/m 0,0 km/h (0 Bft) 97,83 %
05.02.2020 21:38 4,3 C 3,3 C 2,8 C 89 % 1036,3 hPa 0,0 l/m 0 min 0 min 0 W/m 0,0 km/h (0 Bft) 97,87 %
05.02.2020 21:40 4,3 C 3,3 C 2,8 C 89 % 1036,3 hPa 0,0 l/m 0 min 0 min 0 W/m 0,0 km/h (0 Bft) 95,74 %
05.02.2020 21:42 4,3 C 3,3 C 2,8 C 89 % 1036,3 hPa 0,0 l/m 0 min 0 min 0 W/m 3,2 km/h (1 Bft) 91,49 %
05.02.2020 21:44 4,3 C 3,3 C 2,8 C 89 % 1036,3 hPa 0,0 l/m 0 min 0 min 0 W/m 3,2 km/h (1 Bft) 95,74 %
05.02.2020 21:46 4,3 C 3,3 C 2,8 C 89 % 1036,4 hPa 0,0 l/m 0 min 0 min 0 W/m 3,2 km/h (1 Bft) 95,65 %
05.02.2020 21:48 4,3 C 3,3 C 2,8 C 89 % 1036,4 hPa 0,0 l/m 0 min 0 min 0 W/m 0,0 km/h (0 Bft) 95,74 %
05.02.2020 21:50 4,3 C 3,3 C 2,8 C 89 % 1036,3 hPa 0,0 l/m 0 min 0 min 0 W/m 0,0 km/h (0 Bft) 93,62 %
05.02.2020 21:52 4,2 C 3,3 C 2,8 C 89 % 1036,3 hPa 0,0 l/m 0 min 0 min 0 W/m 0,0 km/h (0 Bft) 95,74 %
05.02.2020 21:54 4,2 C 3,3 C 2,8 C 89 % 1036,3 hPa 0,0 l/m 0 min 0 min 0 W/m 3,2 km/h (1 Bft) 95,74 %
05.02.2020 21:56 4,2 C 3,3 C 2,8 C 89 % 1036,3 hPa 0,0 l/m 0 min 0 min 0 W/m 0,0 km/h (0 Bft) 95,74 %
05.02.2020 21:58 4,2 C 3,9 C 2,8 C 89 % 1036,2 hPa 0,0 l/m 0 min 0 min 0 W/m 3,2 km/h (1 Bft) 95,65 %
05.02.2020 22:00 4,2 C 3,9 C 2,8 C 89 % 1036,2 hPa 0,0 l/m 0 min 0 min 0 W/m 3,2 km/h (1 Bft) 93,62 %
05.02.2020 22:02 4,2 C 3,9 C 2,8 C 89 % 1036,1 hPa 0,0 l/m 0 min 0 min 0 W/m 12,9 km/h (3 Bft) 95,74 %
05.02.2020 22:04 4,2 C 3,9 C 3,3 C 89 % 1036,0 hPa 0,0 l/m 0 min 0 min 0 W/m 3,2 km/h (1 Bft) 95,74 %
05.02.2020 22:06 4,2 C 3,9 C 3,3 C 89 % 1036,0 hPa 0,0 l/m 0 min 0 min 0 W/m 3,2 km/h (1 Bft) 97,87 %
05.02.2020 22:08 4,2 C 3,9 C 3,3 C 89 % 1036,1 hPa 0,0 l/m 0 min 0 min 0 W/m 3,2 km/h (1 Bft) 95,74 %
05.02.2020 22:10 4,2 C 3,9 C 3,3 C 89 % 1036,1 hPa 0,0 l/m 0 min 0 min 0 W/m 0,0 km/h (0 Bft) 97,83 %
05.02.2020 22:12 4,2 C 3,9 C 3,3 C 89 % 1036,1 hPa 0,0 l/m 0 min 0 min 0 W/m 0,0 km/h (0 Bft) 95,74 %
05.02.2020 22:14 4,2 C 3,9 C 3,3 C 89 % 1036,1 hPa 0,0 l/m 0 min 0 min 0 W/m 6,4 km/h (2 Bft) 95,74 %
05.02.2020 22:16 4,2 C 3,9 C 3,3 C 89 % 1036,1 hPa 0,0 l/m 0 min 0 min 0 W/m 6,4 km/h (2 Bft) 97,87 %
05.02.2020 22:18 4,2 C 3,3 C 3,3 C 89 % 1036,1 hPa 0,0 l/m 0 min 0 min 0 W/m 12,9 km/h (3 Bft) 95,74 %
05.02.2020 22:20 4,2 C 3,3 C 2,8 C 89 % 1036,1 hPa 0,0 l/m 0 min 0 min 0 W/m 0,0 km/h (0 Bft) 97,87 %
05.02.2020 22:22 4,2 C 3,3 C 2,8 C 89 % 1036,1 hPa 0,0 l/m 0 min 0 min 0 W/m 6,4 km/h (2 Bft) 97,83 %
05.02.2020 22:24 4,2 C 3,3 C 3,3 C 89 % 1036,1 hPa 0,0 l/m 0 min 0 min 0 W/m 6,4 km/h (2 Bft) 100,00 %
05.02.2020 22:26 4,2 C 3,3 C 3,3 C 89 % 1036,1 hPa 0,0 l/m 0 min 0 min 0 W/m 6,4 km/h (2 Bft) 100,00 %
05.02.2020 22:28 4,2 C 3,9 C 3,3 C 89 % 1036,0 hPa 0,0 l/m 0 min 0 min 0 W/m 12,9 km/h (3 Bft) 100,00 %
05.02.2020 22:30 4,2 C 3,9 C 3,3 C 89 % 1036,0 hPa 0,0 l/m 0 min 0 min 0 W/m 12,9 km/h (3 Bft) 100,00 %
05.02.2020 22:32 4,2 C 3,3 C 3,3 C 89 % 1036,1 hPa 0,0 l/m 0 min 0 min 0 W/m 6,4 km/h (2 Bft) 100,00 %
05.02.2020 22:34 4,2 C 3,9 C 3,3 C 89 % 1036,1 hPa 0,0 l/m 0 min 0 min 0 W/m 6,4 km/h (2 Bft) 100,00 %
05.02.2020 22:36 4,2 C 3,9 C 3,3 C 89 % 1036,1 hPa 0,0 l/m 0 min 0 min 0 W/m 12,9 km/h (3 Bft) 100,00 %
05.02.2020 22:38 4,2 C 3,9 C 3,3 C 89 % 1036,1 hPa 0,0 l/m 0 min 0 min 0 W/m 6,4 km/h (2 Bft) 100,00 %
05.02.2020 22:40 4,2 C 3,9 C 3,3 C 89 % 1036,2 hPa 0,0 l/m 0 min 0 min 0 W/m 9,7 km/h (2 Bft) 97,87 %
05.02.2020 22:42 4,2 C 3,9 C 3,3 C 89 % 1036,2 hPa 0,0 l/m 0 min 0 min 0 W/m 6,4 km/h (2 Bft) 100,00 %
05.02.2020 22:44 4,2 C 3,9 C 3,3 C 89 % 1036,2 hPa 0,0 l/m 0 min 0 min 0 W/m 9,7 km/h (2 Bft) 100,00 %
05.02.2020 22:46 4,2 C 3,9 C 3,3 C 89 % 1036,2 hPa 0,0 l/m 0 min 0 min 0 W/m 9,7 km/h (2 Bft) 100,00 %
05.02.2020 22:48 4,2 C 3,9 C 3,3 C 89 % 1036,2 hPa 0,0 l/m 0 min 0 min 0 W/m 9,7 km/h (2 Bft) 100,00 %
05.02.2020 22:50 4,2 C 3,9 C 3,3 C 89 % 1036,2 hPa 0,0 l/m 0 min 0 min 0 W/m 3,2 km/h (1 Bft) 100,00 %
05.02.2020 22:52 4,2 C 3,9 C 3,3 C 89 % 1036,1 hPa 0,0 l/m 0 min 0 min 0 W/m 0,0 km/h (0 Bft) 100,00 %
05.02.2020 22:54 4,2 C 3,9 C 3,3 C 89 % 1036,1 hPa 0,0 l/m 0 min 0 min 0 W/m 9,7 km/h (2 Bft) 100,00 %
05.02.2020 22:56 4,2 C 3,9 C 3,3 C 89 % 1036,2 hPa 0,0 l/m 0 min 0 min 0 W/m 0,0 km/h (0 Bft) 100,00 %
05.02.2020 22:58 4,2 C 3,9 C 3,3 C 89 % 1036,2 hPa 0,0 l/m 0 min 0 min 0 W/m 0,0 km/h (0 Bft) 100,00 %
05.02.2020 23:00 4,2 C 3,9 C 3,3 C 89 % 1036,1 hPa 0,0 l/m 0 min 0 min 0 W/m 6,4 km/h (2 Bft) 100,00 %
05.02.2020 23:02 4,2 C 3,9 C 3,3 C 89 % 1036,1 hPa 0,0 l/m 0 min 0 min 0 W/m 0,0 km/h (0 Bft) 97,87 %
05.02.2020 23:04 4,2 C 3,9 C 3,3 C 89 % 1036,1 hPa 0,0 l/m 0 min 0 min 0 W/m 9,7 km/h (2 Bft) 100,00 %
05.02.2020 23:06 4,2 C 3,9 C 3,3 C 89 % 1036,1 hPa 0,0 l/m 0 min 0 min 0 W/m 3,2 km/h (1 Bft) 100,00 %
05.02.2020 23:08 4,2 C 3,9 C 3,3 C 89 % 1036,1 hPa 0,0 l/m 0 min 0 min 0 W/m 6,4 km/h (2 Bft) 100,00 %
05.02.2020 23:10 4,2 C 3,9 C 3,3 C 89 % 1036,2 hPa 0,0 l/m 0 min 0 min 0 W/m 6,4 km/h (2 Bft) 100,00 %
05.02.2020 23:12 4,2 C 3,9 C 3,3 C 89 % 1036,1 hPa 0,0 l/m 0 min 0 min 0 W/m 3,2 km/h (1 Bft) 100,00 %
05.02.2020 23:14 4,2 C 3,9 C 3,3 C 89 % 1036,1 hPa 0,0 l/m 0 min 0 min 0 W/m 3,2 km/h (1 Bft) 100,00 %
05.02.2020 23:16 4,2 C 3,3 C 3,3 C 89 % 1036,1 hPa 0,0 l/m 0 min 0 min 0 W/m 3,2 km/h (1 Bft) 100,00 %
05.02.2020 23:18 4,2 C 3,3 C 3,3 C 89 % 1036,1 hPa 0,0 l/m 0 min 0 min 0 W/m 0,0 km/h (0 Bft) 100,00 %
05.02.2020 23:20 4,2 C 3,3 C 2,8 C 90 % 1036,0 hPa 0,0 l/m 0 min 0 min 0 W/m 0,0 km/h (0 Bft) 100,00 %
05.02.2020 23:22 4,2 C 3,3 C 3,3 C 90 % 1036,0 hPa 0,0 l/m 0 min 0 min 0 W/m 0,0 km/h (0 Bft) 100,00 %
05.02.2020 23:24 4,2 C 3,3 C 2,8 C 90 % 1036,1 hPa 0,0 l/m 0 min 0 min 0 W/m 0,0 km/h (0 Bft) 100,00 %
05.02.2020 23:26 4,2 C 3,3 C 3,3 C 90 % 1036,0 hPa 0,0 l/m 0 min 0 min 0 W/m 0,0 km/h (0 Bft) 100,00 %
05.02.2020 23:28 4,2 C 3,3 C 3,3 C 90 % 1036,0 hPa 0,0 l/m 0 min 0 min 0 W/m 0,0 km/h (0 Bft) 100,00 %
05.02.2020 23:30 4,2 C 3,3 C 3,3 C 90 % 1036,0 hPa 0,0 l/m 0 min 0 min 0 W/m 0,0 km/h (0 Bft) 97,87 %
05.02.2020 23:32 4,2 C 3,3 C 3,3 C 90 % 1036,0 hPa 0,0 l/m 0 min 0 min 0 W/m 0,0 km/h (0 Bft) 97,83 %
05.02.2020 23:34 4,2 C 3,3 C 2,8 C 90 % 1036,0 hPa 0,0 l/m 0 min 0 min 0 W/m 0,0 km/h (0 Bft) 97,87 %
05.02.2020 23:36 4,2 C 3,3 C 2,8 C 90 % 1036,0 hPa 0,0 l/m 0 min 0 min 0 W/m 0,0 km/h (0 Bft) 97,87 %
05.02.2020 23:38 4,2 C 3,3 C 3,3 C 90 % 1036,0 hPa 0,0 l/m 0 min 0 min 0 W/m 0,0 km/h (0 Bft) 97,87 %
05.02.2020 23:40 4,2 C 3,3 C 3,3 C 90 % 1036,0 hPa 0,0 l/m 0 min 0 min 0 W/m 0,0 km/h (0 Bft) 53,49 %
05.02.2020 23:42 4,2 C 3,9 C 3,3 C 90 % 1036,1 hPa 0,0 l/m 0 min 0 min 0 W/m 0,0 km/h (0 Bft) 97,87 %
05.02.2020 23:44 4,2 C 3,9 C 3,3 C 90 % 1036,0 hPa 0,0 l/m 0 min 0 min 0 W/m 0,0 km/h (0 Bft) 97,83 %
05.02.2020 23:46 4,2 C 3,9 C 3,3 C 90 % 1036,0 hPa 0,0 l/m 0 min 0 min 0 W/m 0,0 km/h (0 Bft) 97,87 %
05.02.2020 23:48 4,2 C 3,9 C 3,3 C 90 % 1036,0 hPa 0,0 l/m 0 min 0 min 0 W/m 0,0 km/h (0 Bft) 95,74 %
05.02.2020 23:50 4,2 C 3,9 C 3,3 C 90 % 1036,0 hPa 0,0 l/m 0 min 0 min 0 W/m 0,0 km/h (0 Bft) 97,87 %
05.02.2020 23:52 4,3 C 3,9 C 3,3 C 90 % 1036,0 hPa 0,0 l/m 0 min 0 min 0 W/m 6,4 km/h (2 Bft) 95,74 %
05.02.2020 23:54 4,3 C 3,9 C 3,3 C 90 % 1036,0 hPa 0,0 l/m 0 min 0 min 0 W/m 3,2 km/h (1 Bft) 97,87 %
05.02.2020 23:56 4,2 C 3,9 C 3,3 C 90 % 1036,0 hPa 0,0 l/m 0 min 0 min 0 W/m 3,2 km/h (1 Bft) 97,83 %
05.02.2020 23:58 4,3 C 3,9 C 3,3 C 90 % 1036,0 hPa 0,0 l/m 0 min 0 min 0 W/m 0,0 km/h (0 Bft) 95,74 %
_ Min-Zeit 08:30 08:00 07:32 14:46 00:00 - - - - 00:00 18:20
Minimum _ 0,5 C -1,1 C -1,7 C 73 % 1027,7 hPa - - - - 0,0 km/h (0 Bft) 47,37 %
_ Max-Zeit 14:38 12:52 12:46 09:54 12:06 00:04 10:08 00:00 12:44 12:36 01:16
Maximum _ 9,2 C 16,1 C 8,9 C 100 % 1037,7 hPa 0,2 l/m 2 min 0 min 556 W/m 19,3 km/h
NW (3 Bft)
100,00 %
Durchschnitt _ 4,1 C 4,5 C 2,7 C 92 % 1034,8 hPa #0,2 l/m #5:08 h #0 min. 199 W/m 2,5 km/h (1 Bft) 97,19 %
© 2020 W. Hausmann